<?xml version="1.0" encoding="UTF-8" standalone="no" ?>
<gpx xmlns="http://www.topografix.com/GPX/1/1" xmlns:xsi="http://www.w3.org/2001/XMLSchema-instance" xsi:schemaLocation="http://www.topografix.com/GPX/1/1 http://www.topografix.com/GPX/1/1/gpx.xsd" version="1.1" creator="VisuGPX - https://www.visugpx.com">
  <metadata>
    <name>Estérel du matin</name>
    <desc><![CDATA[Les pneus accrochent malgré la pluie des 2 jours précédents]]></desc>
  </metadata>
  <trk>
    <name><![CDATA[2016-10-15 Estérel]]></name>
    <trkseg>
      <trkpt lat="43.50756" lon="6.94176">
        <ele>11</ele>
        <time>2016-10-15T07:23:08Z</time>
      </trkpt>
      <trkpt lat="43.5075" lon="6.94182">
        <ele>11</ele>
        <time>2016-10-15T07:23:15Z</time>
      </trkpt>
      <trkpt lat="43.50746" lon="6.94181">
        <ele>4</ele>
        <time>2016-10-15T07:23:17Z</time>
      </trkpt>
      <trkpt lat="43.50744" lon="6.94181">
        <ele>6</ele>
        <time>2016-10-15T07:23:19Z</time>
      </trkpt>
      <trkpt lat="43.50737" lon="6.94173">
        <ele>4</ele>
        <time>2016-10-15T07:23:23Z</time>
      </trkpt>
      <trkpt lat="43.50726" lon="6.94159">
        <ele>4</ele>
        <time>2016-10-15T07:23:27Z</time>
      </trkpt>
      <trkpt lat="43.507" lon="6.94121">
        <ele>4</ele>
        <time>2016-10-15T07:23:38Z</time>
      </trkpt>
      <trkpt lat="43.50673" lon="6.94077">
        <ele>4</ele>
        <time>2016-10-15T07:23:50Z</time>
      </trkpt>
      <trkpt lat="43.50652" lon="6.94048">
        <ele>4</ele>
        <time>2016-10-15T07:23:58Z</time>
      </trkpt>
      <trkpt lat="43.50628" lon="6.94011">
        <ele>4</ele>
        <time>2016-10-15T07:24:08Z</time>
      </trkpt>
      <trkpt lat="43.50625" lon="6.94003">
        <ele>4</ele>
        <time>2016-10-15T07:24:10Z</time>
      </trkpt>
      <trkpt lat="43.50623" lon="6.93998">
        <ele>6</ele>
        <time>2016-10-15T07:24:11Z</time>
      </trkpt>
      <trkpt lat="43.50619" lon="6.93985">
        <ele>6</ele>
        <time>2016-10-15T07:24:14Z</time>
      </trkpt>
      <trkpt lat="43.50589" lon="6.93963">
        <ele>6</ele>
        <time>2016-10-15T07:24:23Z</time>
      </trkpt>
      <trkpt lat="43.50564" lon="6.93928">
        <ele>6</ele>
        <time>2016-10-15T07:24:33Z</time>
      </trkpt>
      <trkpt lat="43.50554" lon="6.93916">
        <ele>7</ele>
        <time>2016-10-15T07:24:37Z</time>
      </trkpt>
      <trkpt lat="43.50477" lon="6.93863">
        <ele>8</ele>
        <time>2016-10-15T07:25:02Z</time>
      </trkpt>
      <trkpt lat="43.50439" lon="6.93838">
        <ele>10</ele>
        <time>2016-10-15T07:25:17Z</time>
      </trkpt>
      <trkpt lat="43.50433" lon="6.93831">
        <ele>11</ele>
        <time>2016-10-15T07:25:20Z</time>
      </trkpt>
      <trkpt lat="43.50426" lon="6.93814">
        <ele>12</ele>
        <time>2016-10-15T07:25:26Z</time>
      </trkpt>
      <trkpt lat="43.50418" lon="6.938">
        <ele>12</ele>
        <time>2016-10-15T07:25:30Z</time>
      </trkpt>
      <trkpt lat="43.50405" lon="6.93779">
        <ele>15</ele>
        <time>2016-10-15T07:25:37Z</time>
      </trkpt>
      <trkpt lat="43.50387" lon="6.93759">
        <ele>16</ele>
        <time>2016-10-15T07:25:48Z</time>
      </trkpt>
      <trkpt lat="43.50349" lon="6.93739">
        <ele>18</ele>
        <time>2016-10-15T07:26:05Z</time>
      </trkpt>
      <trkpt lat="43.50332" lon="6.93732">
        <ele>18</ele>
        <time>2016-10-15T07:26:11Z</time>
      </trkpt>
      <trkpt lat="43.50318" lon="6.9372">
        <ele>18</ele>
        <time>2016-10-15T07:26:21Z</time>
      </trkpt>
      <trkpt lat="43.50312" lon="6.9371">
        <ele>18</ele>
        <time>2016-10-15T07:26:26Z</time>
      </trkpt>
      <trkpt lat="43.50307" lon="6.93705">
        <ele>20</ele>
        <time>2016-10-15T07:26:29Z</time>
      </trkpt>
      <trkpt lat="43.50292" lon="6.93695">
        <ele>22</ele>
        <time>2016-10-15T07:26:37Z</time>
      </trkpt>
      <trkpt lat="43.50287" lon="6.93694">
        <ele>23</ele>
        <time>2016-10-15T07:26:40Z</time>
      </trkpt>
      <trkpt lat="43.50279" lon="6.93695">
        <ele>23</ele>
        <time>2016-10-15T07:26:44Z</time>
      </trkpt>
      <trkpt lat="43.50272" lon="6.93697">
        <ele>23</ele>
        <time>2016-10-15T07:26:46Z</time>
      </trkpt>
      <trkpt lat="43.50268" lon="6.93699">
        <ele>21</ele>
        <time>2016-10-15T07:26:47Z</time>
      </trkpt>
      <trkpt lat="43.50251" lon="6.93709">
        <ele>20</ele>
        <time>2016-10-15T07:26:51Z</time>
      </trkpt>
      <trkpt lat="43.50224" lon="6.93719">
        <ele>20</ele>
        <time>2016-10-15T07:26:58Z</time>
      </trkpt>
      <trkpt lat="43.50211" lon="6.9372">
        <ele>20</ele>
        <time>2016-10-15T07:27:02Z</time>
      </trkpt>
      <trkpt lat="43.50203" lon="6.93719">
        <ele>20</ele>
        <time>2016-10-15T07:27:05Z</time>
      </trkpt>
      <trkpt lat="43.50201" lon="6.93718">
        <ele>22</ele>
        <time>2016-10-15T07:27:06Z</time>
      </trkpt>
      <trkpt lat="43.50188" lon="6.93715">
        <ele>22</ele>
        <time>2016-10-15T07:27:11Z</time>
      </trkpt>
      <trkpt lat="43.5017" lon="6.93718">
        <ele>22</ele>
        <time>2016-10-15T07:27:19Z</time>
      </trkpt>
      <trkpt lat="43.50159" lon="6.93719">
        <ele>23</ele>
        <time>2016-10-15T07:27:24Z</time>
      </trkpt>
      <trkpt lat="43.50125" lon="6.93715">
        <ele>24</ele>
        <time>2016-10-15T07:27:36Z</time>
      </trkpt>
      <trkpt lat="43.50108" lon="6.93712">
        <ele>25</ele>
        <time>2016-10-15T07:27:41Z</time>
      </trkpt>
      <trkpt lat="43.50089" lon="6.93702">
        <ele>25</ele>
        <time>2016-10-15T07:27:50Z</time>
      </trkpt>
      <trkpt lat="43.50076" lon="6.93698">
        <ele>25</ele>
        <time>2016-10-15T07:27:54Z</time>
      </trkpt>
      <trkpt lat="43.50071" lon="6.93698">
        <ele>25</ele>
        <time>2016-10-15T07:27:56Z</time>
      </trkpt>
      <trkpt lat="43.50055" lon="6.93704">
        <ele>28</ele>
        <time>2016-10-15T07:28:04Z</time>
      </trkpt>
      <trkpt lat="43.50024" lon="6.93706">
        <ele>32</ele>
        <time>2016-10-15T07:28:20Z</time>
      </trkpt>
      <trkpt lat="43.50008" lon="6.93701">
        <ele>33</ele>
        <time>2016-10-15T07:28:28Z</time>
      </trkpt>
      <trkpt lat="43.49989" lon="6.93688">
        <ele>35</ele>
        <time>2016-10-15T07:28:39Z</time>
      </trkpt>
      <trkpt lat="43.49984" lon="6.93685">
        <ele>37</ele>
        <time>2016-10-15T07:28:42Z</time>
      </trkpt>
      <trkpt lat="43.49975" lon="6.93679">
        <ele>37</ele>
        <time>2016-10-15T07:28:47Z</time>
      </trkpt>
      <trkpt lat="43.49969" lon="6.93676">
        <ele>39</ele>
        <time>2016-10-15T07:28:51Z</time>
      </trkpt>
      <trkpt lat="43.49957" lon="6.93671">
        <ele>41</ele>
        <time>2016-10-15T07:28:57Z</time>
      </trkpt>
      <trkpt lat="43.49946" lon="6.93667">
        <ele>41</ele>
        <time>2016-10-15T07:29:03Z</time>
      </trkpt>
      <trkpt lat="43.49924" lon="6.93655">
        <ele>43</ele>
        <time>2016-10-15T07:29:15Z</time>
      </trkpt>
      <trkpt lat="43.49917" lon="6.93654">
        <ele>43</ele>
        <time>2016-10-15T07:29:19Z</time>
      </trkpt>
      <trkpt lat="43.49908" lon="6.93656">
        <ele>44</ele>
        <time>2016-10-15T07:29:24Z</time>
      </trkpt>
      <trkpt lat="43.49892" lon="6.93666">
        <ele>47</ele>
        <time>2016-10-15T07:29:34Z</time>
      </trkpt>
      <trkpt lat="43.49883" lon="6.93671">
        <ele>47</ele>
        <time>2016-10-15T07:29:40Z</time>
      </trkpt>
      <trkpt lat="43.49878" lon="6.93669">
        <ele>47</ele>
        <time>2016-10-15T07:29:43Z</time>
      </trkpt>
      <trkpt lat="43.49876" lon="6.93658">
        <ele>48</ele>
        <time>2016-10-15T07:29:49Z</time>
      </trkpt>
      <trkpt lat="43.49872" lon="6.93654">
        <ele>48</ele>
        <time>2016-10-15T07:29:52Z</time>
      </trkpt>
      <trkpt lat="43.49852" lon="6.93656">
        <ele>50</ele>
        <time>2016-10-15T07:30:04Z</time>
      </trkpt>
      <trkpt lat="43.4984" lon="6.93652">
        <ele>52</ele>
        <time>2016-10-15T07:30:12Z</time>
      </trkpt>
      <trkpt lat="43.49824" lon="6.93641">
        <ele>54</ele>
        <time>2016-10-15T07:30:24Z</time>
      </trkpt>
      <trkpt lat="43.49823" lon="6.9364">
        <ele>53</ele>
        <time>2016-10-15T07:30:25Z</time>
      </trkpt>
      <trkpt lat="43.49817" lon="6.93637">
        <ele>55</ele>
        <time>2016-10-15T07:30:30Z</time>
      </trkpt>
      <trkpt lat="43.49802" lon="6.93624">
        <ele>57</ele>
        <time>2016-10-15T07:30:42Z</time>
      </trkpt>
      <trkpt lat="43.49797" lon="6.93624">
        <ele>58</ele>
        <time>2016-10-15T07:30:45Z</time>
      </trkpt>
      <trkpt lat="43.49789" lon="6.93626">
        <ele>59</ele>
        <time>2016-10-15T07:30:50Z</time>
      </trkpt>
      <trkpt lat="43.49786" lon="6.93626">
        <ele>58</ele>
        <time>2016-10-15T07:30:52Z</time>
      </trkpt>
      <trkpt lat="43.49785" lon="6.93625">
        <ele>59</ele>
        <time>2016-10-15T07:30:53Z</time>
      </trkpt>
      <trkpt lat="43.49775" lon="6.93611">
        <ele>60</ele>
        <time>2016-10-15T07:31:01Z</time>
      </trkpt>
      <trkpt lat="43.49762" lon="6.93595">
        <ele>62</ele>
        <time>2016-10-15T07:31:10Z</time>
      </trkpt>
      <trkpt lat="43.49751" lon="6.93577">
        <ele>61</ele>
        <time>2016-10-15T07:31:21Z</time>
      </trkpt>
      <trkpt lat="43.49744" lon="6.93569">
        <ele>61</ele>
        <time>2016-10-15T07:31:27Z</time>
      </trkpt>
      <trkpt lat="43.49729" lon="6.93563">
        <ele>61</ele>
        <time>2016-10-15T07:31:35Z</time>
      </trkpt>
      <trkpt lat="43.49713" lon="6.93561">
        <ele>62</ele>
        <time>2016-10-15T07:31:43Z</time>
      </trkpt>
      <trkpt lat="43.49699" lon="6.93564">
        <ele>62</ele>
        <time>2016-10-15T07:31:49Z</time>
      </trkpt>
      <trkpt lat="43.49685" lon="6.93575">
        <ele>62</ele>
        <time>2016-10-15T07:31:56Z</time>
      </trkpt>
      <trkpt lat="43.49673" lon="6.93591">
        <ele>62</ele>
        <time>2016-10-15T07:32:02Z</time>
      </trkpt>
      <trkpt lat="43.49653" lon="6.93629">
        <ele>62</ele>
        <time>2016-10-15T07:32:15Z</time>
      </trkpt>
      <trkpt lat="43.49644" lon="6.93642">
        <ele>62</ele>
        <time>2016-10-15T07:32:20Z</time>
      </trkpt>
      <trkpt lat="43.49621" lon="6.93665">
        <ele>62</ele>
        <time>2016-10-15T07:32:32Z</time>
      </trkpt>
      <trkpt lat="43.49617" lon="6.93666">
        <ele>62</ele>
        <time>2016-10-15T07:32:34Z</time>
      </trkpt>
      <trkpt lat="43.49615" lon="6.93665">
        <ele>62</ele>
        <time>2016-10-15T07:32:35Z</time>
      </trkpt>
      <trkpt lat="43.49614" lon="6.93661">
        <ele>62</ele>
        <time>2016-10-15T07:32:37Z</time>
      </trkpt>
      <trkpt lat="43.49614" lon="6.93658">
        <ele>63</ele>
        <time>2016-10-15T07:32:39Z</time>
      </trkpt>
      <trkpt lat="43.49621" lon="6.93646">
        <ele>64</ele>
        <time>2016-10-15T07:32:46Z</time>
      </trkpt>
      <trkpt lat="43.49626" lon="6.93633">
        <ele>65</ele>
        <time>2016-10-15T07:32:52Z</time>
      </trkpt>
      <trkpt lat="43.49632" lon="6.93613">
        <ele>67</ele>
        <time>2016-10-15T07:33:00Z</time>
      </trkpt>
      <trkpt lat="43.49635" lon="6.93597">
        <ele>68</ele>
        <time>2016-10-15T07:33:06Z</time>
      </trkpt>
      <trkpt lat="43.49647" lon="6.93555">
        <ele>70</ele>
        <time>2016-10-15T07:33:22Z</time>
      </trkpt>
      <trkpt lat="43.49652" lon="6.93543">
        <ele>72</ele>
        <time>2016-10-15T07:33:27Z</time>
      </trkpt>
      <trkpt lat="43.49664" lon="6.93514">
        <ele>73</ele>
        <time>2016-10-15T07:33:39Z</time>
      </trkpt>
      <trkpt lat="43.49669" lon="6.93506">
        <ele>74</ele>
        <time>2016-10-15T07:33:43Z</time>
      </trkpt>
      <trkpt lat="43.49673" lon="6.9349">
        <ele>76</ele>
        <time>2016-10-15T07:33:49Z</time>
      </trkpt>
      <trkpt lat="43.49674" lon="6.93482">
        <ele>76</ele>
        <time>2016-10-15T07:33:52Z</time>
      </trkpt>
      <trkpt lat="43.4967" lon="6.93468">
        <ele>78</ele>
        <time>2016-10-15T07:33:58Z</time>
      </trkpt>
      <trkpt lat="43.49665" lon="6.93448">
        <ele>78</ele>
        <time>2016-10-15T07:34:06Z</time>
      </trkpt>
      <trkpt lat="43.49661" lon="6.93437">
        <ele>80</ele>
        <time>2016-10-15T07:34:11Z</time>
      </trkpt>
      <trkpt lat="43.4964" lon="6.93401">
        <ele>83</ele>
        <time>2016-10-15T07:34:29Z</time>
      </trkpt>
      <trkpt lat="43.49625" lon="6.93384">
        <ele>85</ele>
        <time>2016-10-15T07:34:40Z</time>
      </trkpt>
      <trkpt lat="43.49613" lon="6.93377">
        <ele>86</ele>
        <time>2016-10-15T07:34:47Z</time>
      </trkpt>
      <trkpt lat="43.49606" lon="6.93374">
        <ele>88</ele>
        <time>2016-10-15T07:34:53Z</time>
      </trkpt>
      <trkpt lat="43.49576" lon="6.93362">
        <ele>90</ele>
        <time>2016-10-15T07:35:10Z</time>
      </trkpt>
      <trkpt lat="43.49573" lon="6.93358">
        <ele>90</ele>
        <time>2016-10-15T07:35:13Z</time>
      </trkpt>
      <trkpt lat="43.49571" lon="6.93353">
        <ele>90</ele>
        <time>2016-10-15T07:35:15Z</time>
      </trkpt>
      <trkpt lat="43.49577" lon="6.9334">
        <ele>91</ele>
        <time>2016-10-15T07:35:22Z</time>
      </trkpt>
      <trkpt lat="43.49593" lon="6.93327">
        <ele>91</ele>
        <time>2016-10-15T07:35:31Z</time>
      </trkpt>
      <trkpt lat="43.49614" lon="6.93315">
        <ele>92</ele>
        <time>2016-10-15T07:35:41Z</time>
      </trkpt>
      <trkpt lat="43.49621" lon="6.93306">
        <ele>92</ele>
        <time>2016-10-15T07:35:45Z</time>
      </trkpt>
      <trkpt lat="43.49623" lon="6.933">
        <ele>92</ele>
        <time>2016-10-15T07:35:47Z</time>
      </trkpt>
      <trkpt lat="43.49627" lon="6.93277">
        <ele>94</ele>
        <time>2016-10-15T07:35:55Z</time>
      </trkpt>
      <trkpt lat="43.49626" lon="6.93269">
        <ele>94</ele>
        <time>2016-10-15T07:35:58Z</time>
      </trkpt>
      <trkpt lat="43.49623" lon="6.93254">
        <ele>95</ele>
        <time>2016-10-15T07:36:04Z</time>
      </trkpt>
      <trkpt lat="43.49613" lon="6.93237">
        <ele>96</ele>
        <time>2016-10-15T07:36:12Z</time>
      </trkpt>
      <trkpt lat="43.49605" lon="6.93231">
        <ele>97</ele>
        <time>2016-10-15T07:36:16Z</time>
      </trkpt>
      <trkpt lat="43.49581" lon="6.93208">
        <ele>97</ele>
        <time>2016-10-15T07:36:29Z</time>
      </trkpt>
      <trkpt lat="43.49579" lon="6.932">
        <ele>97</ele>
        <time>2016-10-15T07:36:31Z</time>
      </trkpt>
      <trkpt lat="43.49589" lon="6.93181">
        <ele>97</ele>
        <time>2016-10-15T07:36:38Z</time>
      </trkpt>
      <trkpt lat="43.49614" lon="6.93156">
        <ele>98</ele>
        <time>2016-10-15T07:36:50Z</time>
      </trkpt>
      <trkpt lat="43.49623" lon="6.93143">
        <ele>100</ele>
        <time>2016-10-15T07:36:56Z</time>
      </trkpt>
      <trkpt lat="43.4963" lon="6.93129">
        <ele>101</ele>
        <time>2016-10-15T07:37:01Z</time>
      </trkpt>
      <trkpt lat="43.49635" lon="6.93106">
        <ele>102</ele>
        <time>2016-10-15T07:37:08Z</time>
      </trkpt>
      <trkpt lat="43.49637" lon="6.93084">
        <ele>103</ele>
        <time>2016-10-15T07:37:15Z</time>
      </trkpt>
      <trkpt lat="43.49637" lon="6.93061">
        <ele>105</ele>
        <time>2016-10-15T07:37:23Z</time>
      </trkpt>
      <trkpt lat="43.49635" lon="6.93053">
        <ele>105</ele>
        <time>2016-10-15T07:37:26Z</time>
      </trkpt>
      <trkpt lat="43.4963" lon="6.93046">
        <ele>106</ele>
        <time>2016-10-15T07:37:29Z</time>
      </trkpt>
      <trkpt lat="43.49621" lon="6.93039">
        <ele>106</ele>
        <time>2016-10-15T07:37:34Z</time>
      </trkpt>
      <trkpt lat="43.49605" lon="6.93031">
        <ele>108</ele>
        <time>2016-10-15T07:37:42Z</time>
      </trkpt>
      <trkpt lat="43.49595" lon="6.93022">
        <ele>108</ele>
        <time>2016-10-15T07:37:48Z</time>
      </trkpt>
      <trkpt lat="43.49592" lon="6.93008">
        <ele>109</ele>
        <time>2016-10-15T07:37:53Z</time>
      </trkpt>
      <trkpt lat="43.49593" lon="6.93001">
        <ele>108</ele>
        <time>2016-10-15T07:37:56Z</time>
      </trkpt>
      <trkpt lat="43.49598" lon="6.92989">
        <ele>109</ele>
        <time>2016-10-15T07:38:01Z</time>
      </trkpt>
      <trkpt lat="43.49598" lon="6.92982">
        <ele>110</ele>
        <time>2016-10-15T07:38:04Z</time>
      </trkpt>
      <trkpt lat="43.49579" lon="6.92937">
        <ele>112</ele>
        <time>2016-10-15T07:38:24Z</time>
      </trkpt>
      <trkpt lat="43.49574" lon="6.92921">
        <ele>114</ele>
        <time>2016-10-15T07:38:31Z</time>
      </trkpt>
      <trkpt lat="43.49565" lon="6.92902">
        <ele>116</ele>
        <time>2016-10-15T07:38:40Z</time>
      </trkpt>
      <trkpt lat="43.49551" lon="6.92886">
        <ele>117</ele>
        <time>2016-10-15T07:38:51Z</time>
      </trkpt>
      <trkpt lat="43.49538" lon="6.92865">
        <ele>119</ele>
        <time>2016-10-15T07:39:03Z</time>
      </trkpt>
      <trkpt lat="43.49511" lon="6.92838">
        <ele>121</ele>
        <time>2016-10-15T07:39:22Z</time>
      </trkpt>
      <trkpt lat="43.49507" lon="6.92826">
        <ele>122</ele>
        <time>2016-10-15T07:39:27Z</time>
      </trkpt>
      <trkpt lat="43.49506" lon="6.92811">
        <ele>122</ele>
        <time>2016-10-15T07:39:33Z</time>
      </trkpt>
      <trkpt lat="43.49502" lon="6.92795">
        <ele>123</ele>
        <time>2016-10-15T07:39:39Z</time>
      </trkpt>
      <trkpt lat="43.49498" lon="6.92786">
        <ele>123</ele>
        <time>2016-10-15T07:39:43Z</time>
      </trkpt>
      <trkpt lat="43.49492" lon="6.92777">
        <ele>124</ele>
        <time>2016-10-15T07:39:49Z</time>
      </trkpt>
      <trkpt lat="43.49489" lon="6.92775">
        <ele>124</ele>
        <time>2016-10-15T07:39:51Z</time>
      </trkpt>
      <trkpt lat="43.49486" lon="6.9278">
        <ele>124</ele>
        <time>2016-10-15T07:39:54Z</time>
      </trkpt>
      <trkpt lat="43.49481" lon="6.92795">
        <ele>125</ele>
        <time>2016-10-15T07:40:01Z</time>
      </trkpt>
      <trkpt lat="43.49473" lon="6.92812">
        <ele>127</ele>
        <time>2016-10-15T07:40:10Z</time>
      </trkpt>
      <trkpt lat="43.49456" lon="6.9284">
        <ele>130</ele>
        <time>2016-10-15T07:40:27Z</time>
      </trkpt>
      <trkpt lat="43.49454" lon="6.9284">
        <ele>129</ele>
        <time>2016-10-15T07:40:28Z</time>
      </trkpt>
      <trkpt lat="43.49448" lon="6.92841">
        <ele>130</ele>
        <time>2016-10-15T07:40:32Z</time>
      </trkpt>
      <trkpt lat="43.4943" lon="6.92839">
        <ele>132</ele>
        <time>2016-10-15T07:40:43Z</time>
      </trkpt>
      <trkpt lat="43.4942" lon="6.92843">
        <ele>134</ele>
        <time>2016-10-15T07:40:50Z</time>
      </trkpt>
      <trkpt lat="43.49416" lon="6.92847">
        <ele>134</ele>
        <time>2016-10-15T07:40:53Z</time>
      </trkpt>
      <trkpt lat="43.49408" lon="6.92856">
        <ele>136</ele>
        <time>2016-10-15T07:40:59Z</time>
      </trkpt>
      <trkpt lat="43.49401" lon="6.92874">
        <ele>137</ele>
        <time>2016-10-15T07:41:07Z</time>
      </trkpt>
      <trkpt lat="43.494" lon="6.92888">
        <ele>137</ele>
        <time>2016-10-15T07:41:12Z</time>
      </trkpt>
      <trkpt lat="43.49403" lon="6.92903">
        <ele>139</ele>
        <time>2016-10-15T07:41:18Z</time>
      </trkpt>
      <trkpt lat="43.49411" lon="6.92927">
        <ele>140</ele>
        <time>2016-10-15T07:41:29Z</time>
      </trkpt>
      <trkpt lat="43.49411" lon="6.92937">
        <ele>141</ele>
        <time>2016-10-15T07:41:33Z</time>
      </trkpt>
      <trkpt lat="43.49409" lon="6.9295">
        <ele>142</ele>
        <time>2016-10-15T07:41:39Z</time>
      </trkpt>
      <trkpt lat="43.49402" lon="6.9297">
        <ele>143</ele>
        <time>2016-10-15T07:41:49Z</time>
      </trkpt>
      <trkpt lat="43.49401" lon="6.92977">
        <ele>144</ele>
        <time>2016-10-15T07:41:52Z</time>
      </trkpt>
      <trkpt lat="43.49406" lon="6.93006">
        <ele>146</ele>
        <time>2016-10-15T07:42:05Z</time>
      </trkpt>
      <trkpt lat="43.49404" lon="6.93031">
        <ele>147</ele>
        <time>2016-10-15T07:42:16Z</time>
      </trkpt>
      <trkpt lat="43.49401" lon="6.93041">
        <ele>149</ele>
        <time>2016-10-15T07:42:21Z</time>
      </trkpt>
      <trkpt lat="43.49398" lon="6.93052">
        <ele>149</ele>
        <time>2016-10-15T07:42:26Z</time>
      </trkpt>
      <trkpt lat="43.4939" lon="6.93074">
        <ele>152</ele>
        <time>2016-10-15T07:42:37Z</time>
      </trkpt>
      <trkpt lat="43.49373" lon="6.93101">
        <ele>153</ele>
        <time>2016-10-15T07:42:52Z</time>
      </trkpt>
      <trkpt lat="43.49369" lon="6.9311">
        <ele>155</ele>
        <time>2016-10-15T07:42:56Z</time>
      </trkpt>
      <trkpt lat="43.49359" lon="6.93132">
        <ele>156</ele>
        <time>2016-10-15T07:43:05Z</time>
      </trkpt>
      <trkpt lat="43.49355" lon="6.93151">
        <ele>157</ele>
        <time>2016-10-15T07:43:13Z</time>
      </trkpt>
      <trkpt lat="43.49356" lon="6.93166">
        <ele>158</ele>
        <time>2016-10-15T07:43:19Z</time>
      </trkpt>
      <trkpt lat="43.49359" lon="6.93178">
        <ele>160</ele>
        <time>2016-10-15T07:43:24Z</time>
      </trkpt>
      <trkpt lat="43.49366" lon="6.93196">
        <ele>161</ele>
        <time>2016-10-15T07:43:32Z</time>
      </trkpt>
      <trkpt lat="43.49368" lon="6.932">
        <ele>162</ele>
        <time>2016-10-15T07:43:34Z</time>
      </trkpt>
      <trkpt lat="43.49372" lon="6.93201">
        <ele>162</ele>
        <time>2016-10-15T07:43:36Z</time>
      </trkpt>
      <trkpt lat="43.49376" lon="6.93194">
        <ele>164</ele>
        <time>2016-10-15T07:43:40Z</time>
      </trkpt>
      <trkpt lat="43.49371" lon="6.93177">
        <ele>164</ele>
        <time>2016-10-15T07:43:49Z</time>
      </trkpt>
      <trkpt lat="43.49372" lon="6.9317">
        <ele>165</ele>
        <time>2016-10-15T07:43:53Z</time>
      </trkpt>
      <trkpt lat="43.4938" lon="6.93149">
        <ele>166</ele>
        <time>2016-10-15T07:44:04Z</time>
      </trkpt>
      <trkpt lat="43.4939" lon="6.93138">
        <ele>167</ele>
        <time>2016-10-15T07:44:12Z</time>
      </trkpt>
      <trkpt lat="43.49402" lon="6.93129">
        <ele>168</ele>
        <time>2016-10-15T07:44:20Z</time>
      </trkpt>
      <trkpt lat="43.49428" lon="6.93118">
        <ele>171</ele>
        <time>2016-10-15T07:44:35Z</time>
      </trkpt>
      <trkpt lat="43.49434" lon="6.93116">
        <ele>172</ele>
        <time>2016-10-15T07:44:39Z</time>
      </trkpt>
      <trkpt lat="43.4944" lon="6.93116">
        <ele>172</ele>
        <time>2016-10-15T07:44:46Z</time>
      </trkpt>
      <trkpt lat="43.4944" lon="6.93112">
        <ele>172</ele>
        <time>2016-10-15T07:44:49Z</time>
      </trkpt>
      <trkpt lat="43.49438" lon="6.9311">
        <ele>172</ele>
        <time>2016-10-15T07:44:52Z</time>
      </trkpt>
      <trkpt lat="43.49437" lon="6.93112">
        <ele>172</ele>
        <time>2016-10-15T07:44:54Z</time>
      </trkpt>
      <trkpt lat="43.49443" lon="6.93123">
        <ele>172</ele>
        <time>2016-10-15T07:45:01Z</time>
      </trkpt>
      <trkpt lat="43.49443" lon="6.93138">
        <ele>172</ele>
        <time>2016-10-15T07:45:06Z</time>
      </trkpt>
      <trkpt lat="43.49442" lon="6.93156">
        <ele>171</ele>
        <time>2016-10-15T07:45:10Z</time>
      </trkpt>
      <trkpt lat="43.49438" lon="6.93173">
        <ele>170</ele>
        <time>2016-10-15T07:45:14Z</time>
      </trkpt>
      <trkpt lat="43.49405" lon="6.93231">
        <ele>168</ele>
        <time>2016-10-15T07:45:27Z</time>
      </trkpt>
      <trkpt lat="43.49404" lon="6.93235">
        <ele>170</ele>
        <time>2016-10-15T07:45:28Z</time>
      </trkpt>
      <trkpt lat="43.49402" lon="6.93243">
        <ele>170</ele>
        <time>2016-10-15T07:45:31Z</time>
      </trkpt>
      <trkpt lat="43.49399" lon="6.93264">
        <ele>173</ele>
        <time>2016-10-15T07:45:41Z</time>
      </trkpt>
      <trkpt lat="43.49399" lon="6.93278">
        <ele>173</ele>
        <time>2016-10-15T07:45:47Z</time>
      </trkpt>
      <trkpt lat="43.49401" lon="6.93313">
        <ele>177</ele>
        <time>2016-10-15T07:46:02Z</time>
      </trkpt>
      <trkpt lat="43.49399" lon="6.93322">
        <ele>178</ele>
        <time>2016-10-15T07:46:08Z</time>
      </trkpt>
      <trkpt lat="43.49396" lon="6.93323">
        <ele>178</ele>
        <time>2016-10-15T07:46:11Z</time>
      </trkpt>
      <trkpt lat="43.49394" lon="6.93321">
        <ele>179</ele>
        <time>2016-10-15T07:46:12Z</time>
      </trkpt>
      <trkpt lat="43.4939" lon="6.93317">
        <ele>180</ele>
        <time>2016-10-15T07:46:15Z</time>
      </trkpt>
      <trkpt lat="43.49387" lon="6.93312">
        <ele>179</ele>
        <time>2016-10-15T07:46:18Z</time>
      </trkpt>
      <trkpt lat="43.49382" lon="6.93308">
        <ele>180</ele>
        <time>2016-10-15T07:46:22Z</time>
      </trkpt>
      <trkpt lat="43.4937" lon="6.93304">
        <ele>181</ele>
        <time>2016-10-15T07:46:29Z</time>
      </trkpt>
      <trkpt lat="43.4936" lon="6.93304">
        <ele>183</ele>
        <time>2016-10-15T07:46:35Z</time>
      </trkpt>
      <trkpt lat="43.49351" lon="6.93305">
        <ele>183</ele>
        <time>2016-10-15T07:46:40Z</time>
      </trkpt>
      <trkpt lat="43.49345" lon="6.9331">
        <ele>184</ele>
        <time>2016-10-15T07:46:44Z</time>
      </trkpt>
      <trkpt lat="43.4934" lon="6.93316">
        <ele>184</ele>
        <time>2016-10-15T07:46:47Z</time>
      </trkpt>
      <trkpt lat="43.49337" lon="6.93327">
        <ele>186</ele>
        <time>2016-10-15T07:46:52Z</time>
      </trkpt>
      <trkpt lat="43.49339" lon="6.93343">
        <ele>186</ele>
        <time>2016-10-15T07:46:59Z</time>
      </trkpt>
      <trkpt lat="43.49347" lon="6.9336">
        <ele>188</ele>
        <time>2016-10-15T07:47:08Z</time>
      </trkpt>
      <trkpt lat="43.49349" lon="6.93363">
        <ele>190</ele>
        <time>2016-10-15T07:47:10Z</time>
      </trkpt>
      <trkpt lat="43.49351" lon="6.93369">
        <ele>190</ele>
        <time>2016-10-15T07:47:13Z</time>
      </trkpt>
      <trkpt lat="43.49345" lon="6.93401">
        <ele>191</ele>
        <time>2016-10-15T07:47:26Z</time>
      </trkpt>
      <trkpt lat="43.49341" lon="6.93445">
        <ele>190</ele>
        <time>2016-10-15T07:47:37Z</time>
      </trkpt>
      <trkpt lat="43.49334" lon="6.93474">
        <ele>190</ele>
        <time>2016-10-15T07:47:44Z</time>
      </trkpt>
      <trkpt lat="43.49334" lon="6.93481">
        <ele>189</ele>
        <time>2016-10-15T07:47:45Z</time>
      </trkpt>
      <trkpt lat="43.49335" lon="6.93498">
        <ele>186</ele>
        <time>2016-10-15T07:47:47Z</time>
      </trkpt>
      <trkpt lat="43.49336" lon="6.93506">
        <ele>186</ele>
        <time>2016-10-15T07:47:48Z</time>
      </trkpt>
      <trkpt lat="43.49347" lon="6.93553">
        <ele>180</ele>
        <time>2016-10-15T07:47:53Z</time>
      </trkpt>
      <trkpt lat="43.49348" lon="6.93565">
        <ele>179</ele>
        <time>2016-10-15T07:47:54Z</time>
      </trkpt>
      <trkpt lat="43.49347" lon="6.93577">
        <ele>178</ele>
        <time>2016-10-15T07:47:55Z</time>
      </trkpt>
      <trkpt lat="43.49338" lon="6.93606">
        <ele>178</ele>
        <time>2016-10-15T07:47:58Z</time>
      </trkpt>
      <trkpt lat="43.49329" lon="6.93634">
        <ele>180</ele>
        <time>2016-10-15T07:48:02Z</time>
      </trkpt>
      <trkpt lat="43.49323" lon="6.93651">
        <ele>183</ele>
        <time>2016-10-15T07:48:09Z</time>
      </trkpt>
      <trkpt lat="43.49317" lon="6.93694">
        <ele>187</ele>
        <time>2016-10-15T07:48:30Z</time>
      </trkpt>
      <trkpt lat="43.49309" lon="6.93738">
        <ele>189</ele>
        <time>2016-10-15T07:48:45Z</time>
      </trkpt>
      <trkpt lat="43.49309" lon="6.9378">
        <ele>190</ele>
        <time>2016-10-15T07:48:57Z</time>
      </trkpt>
      <trkpt lat="43.493" lon="6.93856">
        <ele>190</ele>
        <time>2016-10-15T07:49:19Z</time>
      </trkpt>
      <trkpt lat="43.49302" lon="6.9386">
        <ele>190</ele>
        <time>2016-10-15T07:49:27Z</time>
      </trkpt>
      <trkpt lat="43.49305" lon="6.93853">
        <ele>190</ele>
        <time>2016-10-15T07:49:35Z</time>
      </trkpt>
      <trkpt lat="43.49304" lon="6.9384">
        <ele>190</ele>
        <time>2016-10-15T07:56:58Z</time>
      </trkpt>
      <trkpt lat="43.49312" lon="6.93771">
        <ele>190</ele>
        <time>2016-10-15T07:57:29Z</time>
      </trkpt>
      <trkpt lat="43.4931" lon="6.93752">
        <ele>190</ele>
        <time>2016-10-15T07:57:36Z</time>
      </trkpt>
      <trkpt lat="43.493" lon="6.93722">
        <ele>189</ele>
        <time>2016-10-15T07:57:43Z</time>
      </trkpt>
      <trkpt lat="43.49299" lon="6.93707">
        <ele>189</ele>
        <time>2016-10-15T07:57:46Z</time>
      </trkpt>
      <trkpt lat="43.493" lon="6.93697">
        <ele>189</ele>
        <time>2016-10-15T07:57:48Z</time>
      </trkpt>
      <trkpt lat="43.49301" lon="6.93692">
        <ele>189</ele>
        <time>2016-10-15T07:57:49Z</time>
      </trkpt>
      <trkpt lat="43.49307" lon="6.93684">
        <ele>189</ele>
        <time>2016-10-15T07:57:51Z</time>
      </trkpt>
      <trkpt lat="43.49316" lon="6.93674">
        <ele>188</ele>
        <time>2016-10-15T07:57:54Z</time>
      </trkpt>
      <trkpt lat="43.49325" lon="6.93665">
        <ele>185</ele>
        <time>2016-10-15T07:57:56Z</time>
      </trkpt>
      <trkpt lat="43.49334" lon="6.9365">
        <ele>184</ele>
        <time>2016-10-15T07:57:59Z</time>
      </trkpt>
      <trkpt lat="43.49335" lon="6.93645">
        <ele>184</ele>
        <time>2016-10-15T07:58:00Z</time>
      </trkpt>
      <trkpt lat="43.49335" lon="6.9363">
        <ele>181</ele>
        <time>2016-10-15T07:58:02Z</time>
      </trkpt>
      <trkpt lat="43.49337" lon="6.93616">
        <ele>181</ele>
        <time>2016-10-15T07:58:04Z</time>
      </trkpt>
      <trkpt lat="43.49347" lon="6.93581">
        <ele>180</ele>
        <time>2016-10-15T07:58:09Z</time>
      </trkpt>
      <trkpt lat="43.49349" lon="6.93566">
        <ele>180</ele>
        <time>2016-10-15T07:58:11Z</time>
      </trkpt>
      <trkpt lat="43.49348" lon="6.93551">
        <ele>181</ele>
        <time>2016-10-15T07:58:15Z</time>
      </trkpt>
      <trkpt lat="43.49337" lon="6.93508">
        <ele>187</ele>
        <time>2016-10-15T07:58:30Z</time>
      </trkpt>
      <trkpt lat="43.49335" lon="6.93489">
        <ele>188</ele>
        <time>2016-10-15T07:58:37Z</time>
      </trkpt>
      <trkpt lat="43.49335" lon="6.93475">
        <ele>190</ele>
        <time>2016-10-15T07:58:42Z</time>
      </trkpt>
      <trkpt lat="43.49338" lon="6.93461">
        <ele>191</ele>
        <time>2016-10-15T07:58:46Z</time>
      </trkpt>
      <trkpt lat="43.49342" lon="6.93447">
        <ele>191</ele>
        <time>2016-10-15T07:58:50Z</time>
      </trkpt>
      <trkpt lat="43.49344" lon="6.93429">
        <ele>191</ele>
        <time>2016-10-15T07:58:54Z</time>
      </trkpt>
      <trkpt lat="43.49342" lon="6.93425">
        <ele>191</ele>
        <time>2016-10-15T07:58:55Z</time>
      </trkpt>
      <trkpt lat="43.49335" lon="6.93417">
        <ele>190</ele>
        <time>2016-10-15T07:58:58Z</time>
      </trkpt>
      <trkpt lat="43.49333" lon="6.93412">
        <ele>190</ele>
        <time>2016-10-15T07:58:59Z</time>
      </trkpt>
      <trkpt lat="43.49333" lon="6.93407">
        <ele>190</ele>
        <time>2016-10-15T07:59:00Z</time>
      </trkpt>
      <trkpt lat="43.49337" lon="6.93391">
        <ele>190</ele>
        <time>2016-10-15T07:59:03Z</time>
      </trkpt>
      <trkpt lat="43.49332" lon="6.93375">
        <ele>190</ele>
        <time>2016-10-15T07:59:07Z</time>
      </trkpt>
      <trkpt lat="43.49333" lon="6.93349">
        <ele>188</ele>
        <time>2016-10-15T07:59:12Z</time>
      </trkpt>
      <trkpt lat="43.49337" lon="6.93333">
        <ele>187</ele>
        <time>2016-10-15T07:59:15Z</time>
      </trkpt>
      <trkpt lat="43.49337" lon="6.93326">
        <ele>187</ele>
        <time>2016-10-15T07:59:18Z</time>
      </trkpt>
      <trkpt lat="43.49335" lon="6.93319">
        <ele>185</ele>
        <time>2016-10-15T07:59:20Z</time>
      </trkpt>
      <trkpt lat="43.49337" lon="6.93312">
        <ele>184</ele>
        <time>2016-10-15T07:59:22Z</time>
      </trkpt>
      <trkpt lat="43.49353" lon="6.93292">
        <ele>182</ele>
        <time>2016-10-15T07:59:29Z</time>
      </trkpt>
      <trkpt lat="43.4936" lon="6.93287">
        <ele>181</ele>
        <time>2016-10-15T07:59:33Z</time>
      </trkpt>
      <trkpt lat="43.49358" lon="6.93281">
        <ele>179</ele>
        <time>2016-10-15T07:59:36Z</time>
      </trkpt>
      <trkpt lat="43.49359" lon="6.93279">
        <ele>179</ele>
        <time>2016-10-15T07:59:37Z</time>
      </trkpt>
      <trkpt lat="43.49364" lon="6.93273">
        <ele>177</ele>
        <time>2016-10-15T07:59:40Z</time>
      </trkpt>
      <trkpt lat="43.49364" lon="6.93268">
        <ele>176</ele>
        <time>2016-10-15T07:59:42Z</time>
      </trkpt>
      <trkpt lat="43.49369" lon="6.9326">
        <ele>174</ele>
        <time>2016-10-15T07:59:45Z</time>
      </trkpt>
      <trkpt lat="43.49369" lon="6.93251">
        <ele>171</ele>
        <time>2016-10-15T07:59:48Z</time>
      </trkpt>
      <trkpt lat="43.49367" lon="6.93245">
        <ele>170</ele>
        <time>2016-10-15T07:59:50Z</time>
      </trkpt>
      <trkpt lat="43.49363" lon="6.9324">
        <ele>169</ele>
        <time>2016-10-15T07:59:52Z</time>
      </trkpt>
      <trkpt lat="43.49349" lon="6.9324">
        <ele>167</ele>
        <time>2016-10-15T07:59:56Z</time>
      </trkpt>
      <trkpt lat="43.49338" lon="6.93244">
        <ele>167</ele>
        <time>2016-10-15T07:59:59Z</time>
      </trkpt>
      <trkpt lat="43.49327" lon="6.93249">
        <ele>165</ele>
        <time>2016-10-15T08:00:02Z</time>
      </trkpt>
      <trkpt lat="43.49303" lon="6.93266">
        <ele>163</ele>
        <time>2016-10-15T08:00:10Z</time>
      </trkpt>
      <trkpt lat="43.493" lon="6.93265">
        <ele>162</ele>
        <time>2016-10-15T08:00:12Z</time>
      </trkpt>
      <trkpt lat="43.49301" lon="6.93252">
        <ele>158</ele>
        <time>2016-10-15T08:00:17Z</time>
      </trkpt>
      <trkpt lat="43.493" lon="6.9325">
        <ele>157</ele>
        <time>2016-10-15T08:00:18Z</time>
      </trkpt>
      <trkpt lat="43.49294" lon="6.93251">
        <ele>155</ele>
        <time>2016-10-15T08:00:20Z</time>
      </trkpt>
      <trkpt lat="43.49289" lon="6.93254">
        <ele>155</ele>
        <time>2016-10-15T08:00:22Z</time>
      </trkpt>
      <trkpt lat="43.49282" lon="6.93262">
        <ele>154</ele>
        <time>2016-10-15T08:00:25Z</time>
      </trkpt>
      <trkpt lat="43.49273" lon="6.93263">
        <ele>151</ele>
        <time>2016-10-15T08:00:28Z</time>
      </trkpt>
      <trkpt lat="43.49268" lon="6.93266">
        <ele>149</ele>
        <time>2016-10-15T08:00:30Z</time>
      </trkpt>
      <trkpt lat="43.49266" lon="6.93276">
        <ele>149</ele>
        <time>2016-10-15T08:00:41Z</time>
      </trkpt>
      <trkpt lat="43.49263" lon="6.93279">
        <ele>148</ele>
        <time>2016-10-15T08:00:45Z</time>
      </trkpt>
      <trkpt lat="43.49261" lon="6.93276">
        <ele>148</ele>
        <time>2016-10-15T08:00:48Z</time>
      </trkpt>
      <trkpt lat="43.49262" lon="6.93262">
        <ele>146</ele>
        <time>2016-10-15T08:00:53Z</time>
      </trkpt>
      <trkpt lat="43.49259" lon="6.93261">
        <ele>144</ele>
        <time>2016-10-15T08:00:55Z</time>
      </trkpt>
      <trkpt lat="43.49251" lon="6.93267">
        <ele>141</ele>
        <time>2016-10-15T08:01:01Z</time>
      </trkpt>
      <trkpt lat="43.49249" lon="6.93266">
        <ele>140</ele>
        <time>2016-10-15T08:01:03Z</time>
      </trkpt>
      <trkpt lat="43.49252" lon="6.93238">
        <ele>135</ele>
        <time>2016-10-15T08:01:13Z</time>
      </trkpt>
      <trkpt lat="43.49251" lon="6.93234">
        <ele>134</ele>
        <time>2016-10-15T08:01:15Z</time>
      </trkpt>
      <trkpt lat="43.4925" lon="6.93233">
        <ele>133</ele>
        <time>2016-10-15T08:01:16Z</time>
      </trkpt>
      <trkpt lat="43.49244" lon="6.93237">
        <ele>131</ele>
        <time>2016-10-15T08:01:19Z</time>
      </trkpt>
      <trkpt lat="43.49237" lon="6.9324">
        <ele>130</ele>
        <time>2016-10-15T08:01:24Z</time>
      </trkpt>
      <trkpt lat="43.49217" lon="6.93244">
        <ele>123</ele>
        <time>2016-10-15T08:01:41Z</time>
      </trkpt>
      <trkpt lat="43.49216" lon="6.93247">
        <ele>121</ele>
        <time>2016-10-15T08:01:44Z</time>
      </trkpt>
      <trkpt lat="43.49213" lon="6.93248">
        <ele>121</ele>
        <time>2016-10-15T08:01:46Z</time>
      </trkpt>
      <trkpt lat="43.49209" lon="6.93252">
        <ele>118</ele>
        <time>2016-10-15T08:01:49Z</time>
      </trkpt>
      <trkpt lat="43.49209" lon="6.93269">
        <ele>116</ele>
        <time>2016-10-15T08:01:55Z</time>
      </trkpt>
      <trkpt lat="43.49208" lon="6.9327">
        <ele>116</ele>
        <time>2016-10-15T08:01:56Z</time>
      </trkpt>
      <trkpt lat="43.49205" lon="6.93271">
        <ele>114</ele>
        <time>2016-10-15T08:01:58Z</time>
      </trkpt>
      <trkpt lat="43.49204" lon="6.93269">
        <ele>113</ele>
        <time>2016-10-15T08:02:01Z</time>
      </trkpt>
      <trkpt lat="43.49204" lon="6.93266">
        <ele>113</ele>
        <time>2016-10-15T08:03:12Z</time>
      </trkpt>
      <trkpt lat="43.49201" lon="6.93262">
        <ele>113</ele>
        <time>2016-10-15T08:03:26Z</time>
      </trkpt>
      <trkpt lat="43.49197" lon="6.9326">
        <ele>110</ele>
        <time>2016-10-15T08:03:29Z</time>
      </trkpt>
      <trkpt lat="43.49191" lon="6.93248">
        <ele>109</ele>
        <time>2016-10-15T08:03:33Z</time>
      </trkpt>
      <trkpt lat="43.49181" lon="6.93237">
        <ele>106</ele>
        <time>2016-10-15T08:03:38Z</time>
      </trkpt>
      <trkpt lat="43.49176" lon="6.93217">
        <ele>105</ele>
        <time>2016-10-15T08:03:44Z</time>
      </trkpt>
      <trkpt lat="43.49173" lon="6.93214">
        <ele>104</ele>
        <time>2016-10-15T08:03:46Z</time>
      </trkpt>
      <trkpt lat="43.49168" lon="6.93215">
        <ele>102</ele>
        <time>2016-10-15T08:03:49Z</time>
      </trkpt>
      <trkpt lat="43.49166" lon="6.93206">
        <ele>101</ele>
        <time>2016-10-15T08:03:52Z</time>
      </trkpt>
      <trkpt lat="43.49163" lon="6.93203">
        <ele>99</ele>
        <time>2016-10-15T08:03:54Z</time>
      </trkpt>
      <trkpt lat="43.49157" lon="6.93203">
        <ele>97</ele>
        <time>2016-10-15T08:03:57Z</time>
      </trkpt>
      <trkpt lat="43.49151" lon="6.93195">
        <ele>95</ele>
        <time>2016-10-15T08:04:00Z</time>
      </trkpt>
      <trkpt lat="43.49146" lon="6.93178">
        <ele>93</ele>
        <time>2016-10-15T08:04:04Z</time>
      </trkpt>
      <trkpt lat="43.49122" lon="6.93161">
        <ele>90</ele>
        <time>2016-10-15T08:04:11Z</time>
      </trkpt>
      <trkpt lat="43.49104" lon="6.93164">
        <ele>89</ele>
        <time>2016-10-15T08:04:19Z</time>
      </trkpt>
      <trkpt lat="43.4909" lon="6.93169">
        <ele>87</ele>
        <time>2016-10-15T08:04:23Z</time>
      </trkpt>
      <trkpt lat="43.49084" lon="6.93169">
        <ele>87</ele>
        <time>2016-10-15T08:04:27Z</time>
      </trkpt>
      <trkpt lat="43.49081" lon="6.93167">
        <ele>86</ele>
        <time>2016-10-15T08:04:34Z</time>
      </trkpt>
      <trkpt lat="43.49077" lon="6.93167">
        <ele>86</ele>
        <time>2016-10-15T08:04:37Z</time>
      </trkpt>
      <trkpt lat="43.49069" lon="6.93164">
        <ele>84</ele>
        <time>2016-10-15T08:04:40Z</time>
      </trkpt>
      <trkpt lat="43.49066" lon="6.93165">
        <ele>84</ele>
        <time>2016-10-15T08:04:41Z</time>
      </trkpt>
      <trkpt lat="43.49059" lon="6.93171">
        <ele>81</ele>
        <time>2016-10-15T08:04:44Z</time>
      </trkpt>
      <trkpt lat="43.49051" lon="6.93186">
        <ele>76</ele>
        <time>2016-10-15T08:04:48Z</time>
      </trkpt>
      <trkpt lat="43.49043" lon="6.93192">
        <ele>74</ele>
        <time>2016-10-15T08:04:53Z</time>
      </trkpt>
      <trkpt lat="43.49048" lon="6.93201">
        <ele>73</ele>
        <time>2016-10-15T08:04:57Z</time>
      </trkpt>
      <trkpt lat="43.49053" lon="6.93221">
        <ele>72</ele>
        <time>2016-10-15T08:05:02Z</time>
      </trkpt>
      <trkpt lat="43.49054" lon="6.93226">
        <ele>71</ele>
        <time>2016-10-15T08:05:03Z</time>
      </trkpt>
      <trkpt lat="43.49052" lon="6.9323">
        <ele>71</ele>
        <time>2016-10-15T08:05:04Z</time>
      </trkpt>
      <trkpt lat="43.49051" lon="6.9323">
        <ele>70</ele>
        <time>2016-10-15T08:05:05Z</time>
      </trkpt>
      <trkpt lat="43.49044" lon="6.93223">
        <ele>70</ele>
        <time>2016-10-15T08:05:08Z</time>
      </trkpt>
      <trkpt lat="43.49036" lon="6.93211">
        <ele>69</ele>
        <time>2016-10-15T08:05:12Z</time>
      </trkpt>
      <trkpt lat="43.49024" lon="6.93212">
        <ele>66</ele>
        <time>2016-10-15T08:05:16Z</time>
      </trkpt>
      <trkpt lat="43.49011" lon="6.93213">
        <ele>66</ele>
        <time>2016-10-15T08:05:21Z</time>
      </trkpt>
      <trkpt lat="43.48999" lon="6.93221">
        <ele>65</ele>
        <time>2016-10-15T08:05:26Z</time>
      </trkpt>
      <trkpt lat="43.4899" lon="6.93221">
        <ele>64</ele>
        <time>2016-10-15T08:05:29Z</time>
      </trkpt>
      <trkpt lat="43.48987" lon="6.93223">
        <ele>64</ele>
        <time>2016-10-15T08:05:31Z</time>
      </trkpt>
      <trkpt lat="43.48991" lon="6.93227">
        <ele>62</ele>
        <time>2016-10-15T08:05:34Z</time>
      </trkpt>
      <trkpt lat="43.49001" lon="6.93229">
        <ele>62</ele>
        <time>2016-10-15T08:05:39Z</time>
      </trkpt>
      <trkpt lat="43.49003" lon="6.93231">
        <ele>60</ele>
        <time>2016-10-15T08:05:41Z</time>
      </trkpt>
      <trkpt lat="43.49002" lon="6.93234">
        <ele>60</ele>
        <time>2016-10-15T08:05:43Z</time>
      </trkpt>
      <trkpt lat="43.48994" lon="6.93239">
        <ele>57</ele>
        <time>2016-10-15T08:05:47Z</time>
      </trkpt>
      <trkpt lat="43.48988" lon="6.93237">
        <ele>57</ele>
        <time>2016-10-15T08:05:50Z</time>
      </trkpt>
      <trkpt lat="43.48977" lon="6.93226">
        <ele>57</ele>
        <time>2016-10-15T08:05:58Z</time>
      </trkpt>
      <trkpt lat="43.48965" lon="6.93212">
        <ele>60</ele>
        <time>2016-10-15T08:06:06Z</time>
      </trkpt>
      <trkpt lat="43.4896" lon="6.93196">
        <ele>61</ele>
        <time>2016-10-15T08:06:13Z</time>
      </trkpt>
      <trkpt lat="43.4896" lon="6.93188">
        <ele>61</ele>
        <time>2016-10-15T08:06:16Z</time>
      </trkpt>
      <trkpt lat="43.48961" lon="6.93183">
        <ele>62</ele>
        <time>2016-10-15T08:06:18Z</time>
      </trkpt>
      <trkpt lat="43.48969" lon="6.93175">
        <ele>63</ele>
        <time>2016-10-15T08:06:24Z</time>
      </trkpt>
      <trkpt lat="43.48981" lon="6.93165">
        <ele>64</ele>
        <time>2016-10-15T08:06:33Z</time>
      </trkpt>
      <trkpt lat="43.48995" lon="6.93141">
        <ele>65</ele>
        <time>2016-10-15T08:06:45Z</time>
      </trkpt>
      <trkpt lat="43.48999" lon="6.93126">
        <ele>66</ele>
        <time>2016-10-15T08:06:51Z</time>
      </trkpt>
      <trkpt lat="43.49003" lon="6.93119">
        <ele>66</ele>
        <time>2016-10-15T08:06:55Z</time>
      </trkpt>
      <trkpt lat="43.49026" lon="6.93105">
        <ele>68</ele>
        <time>2016-10-15T08:07:11Z</time>
      </trkpt>
      <trkpt lat="43.49046" lon="6.931">
        <ele>70</ele>
        <time>2016-10-15T08:07:23Z</time>
      </trkpt>
      <trkpt lat="43.49062" lon="6.93088">
        <ele>72</ele>
        <time>2016-10-15T08:07:34Z</time>
      </trkpt>
      <trkpt lat="43.49082" lon="6.93081">
        <ele>74</ele>
        <time>2016-10-15T08:07:46Z</time>
      </trkpt>
      <trkpt lat="43.49092" lon="6.93084">
        <ele>75</ele>
        <time>2016-10-15T08:07:53Z</time>
      </trkpt>
      <trkpt lat="43.49121" lon="6.93107">
        <ele>77</ele>
        <time>2016-10-15T08:08:12Z</time>
      </trkpt>
      <trkpt lat="43.49155" lon="6.93124">
        <ele>79</ele>
        <time>2016-10-15T08:08:34Z</time>
      </trkpt>
      <trkpt lat="43.49174" lon="6.93126">
        <ele>81</ele>
        <time>2016-10-15T08:08:45Z</time>
      </trkpt>
      <trkpt lat="43.49193" lon="6.93133">
        <ele>83</ele>
        <time>2016-10-15T08:08:56Z</time>
      </trkpt>
      <trkpt lat="43.49217" lon="6.93123">
        <ele>84</ele>
        <time>2016-10-15T08:09:09Z</time>
      </trkpt>
      <trkpt lat="43.49221" lon="6.93119">
        <ele>85</ele>
        <time>2016-10-15T08:09:12Z</time>
      </trkpt>
      <trkpt lat="43.49222" lon="6.93114">
        <ele>85</ele>
        <time>2016-10-15T08:09:14Z</time>
      </trkpt>
      <trkpt lat="43.4922" lon="6.93082">
        <ele>85</ele>
        <time>2016-10-15T08:09:25Z</time>
      </trkpt>
      <trkpt lat="43.49222" lon="6.93067">
        <ele>86</ele>
        <time>2016-10-15T08:09:31Z</time>
      </trkpt>
      <trkpt lat="43.49224" lon="6.93061">
        <ele>86</ele>
        <time>2016-10-15T08:09:34Z</time>
      </trkpt>
      <trkpt lat="43.49228" lon="6.93053">
        <ele>87</ele>
        <time>2016-10-15T08:09:38Z</time>
      </trkpt>
      <trkpt lat="43.49235" lon="6.93047">
        <ele>87</ele>
        <time>2016-10-15T08:09:43Z</time>
      </trkpt>
      <trkpt lat="43.49265" lon="6.93035">
        <ele>91</ele>
        <time>2016-10-15T08:10:01Z</time>
      </trkpt>
      <trkpt lat="43.49277" lon="6.93028">
        <ele>91</ele>
        <time>2016-10-15T08:10:08Z</time>
      </trkpt>
      <trkpt lat="43.49283" lon="6.93022">
        <ele>91</ele>
        <time>2016-10-15T08:10:12Z</time>
      </trkpt>
      <trkpt lat="43.49284" lon="6.93017">
        <ele>92</ele>
        <time>2016-10-15T08:10:14Z</time>
      </trkpt>
      <trkpt lat="43.4928" lon="6.92989">
        <ele>92</ele>
        <time>2016-10-15T08:10:24Z</time>
      </trkpt>
      <trkpt lat="43.4928" lon="6.92986">
        <ele>93</ele>
        <time>2016-10-15T08:10:25Z</time>
      </trkpt>
      <trkpt lat="43.49283" lon="6.92965">
        <ele>93</ele>
        <time>2016-10-15T08:10:33Z</time>
      </trkpt>
      <trkpt lat="43.49297" lon="6.9294">
        <ele>96</ele>
        <time>2016-10-15T08:10:46Z</time>
      </trkpt>
      <trkpt lat="43.49338" lon="6.92912">
        <ele>103</ele>
        <time>2016-10-15T08:11:17Z</time>
      </trkpt>
      <trkpt lat="43.4934" lon="6.92904">
        <ele>103</ele>
        <time>2016-10-15T08:11:21Z</time>
      </trkpt>
      <trkpt lat="43.49341" lon="6.9288">
        <ele>105</ele>
        <time>2016-10-15T08:11:32Z</time>
      </trkpt>
      <trkpt lat="43.49346" lon="6.92848">
        <ele>107</ele>
        <time>2016-10-15T08:11:47Z</time>
      </trkpt>
      <trkpt lat="43.49353" lon="6.92831">
        <ele>108</ele>
        <time>2016-10-15T08:11:56Z</time>
      </trkpt>
      <trkpt lat="43.49356" lon="6.92824">
        <ele>110</ele>
        <time>2016-10-15T08:12:00Z</time>
      </trkpt>
      <trkpt lat="43.49364" lon="6.92812">
        <ele>111</ele>
        <time>2016-10-15T08:12:08Z</time>
      </trkpt>
      <trkpt lat="43.49373" lon="6.92803">
        <ele>113</ele>
        <time>2016-10-15T08:12:16Z</time>
      </trkpt>
      <trkpt lat="43.49383" lon="6.92797">
        <ele>114</ele>
        <time>2016-10-15T08:12:23Z</time>
      </trkpt>
      <trkpt lat="43.49398" lon="6.92791">
        <ele>116</ele>
        <time>2016-10-15T08:12:33Z</time>
      </trkpt>
      <trkpt lat="43.49413" lon="6.92788">
        <ele>117</ele>
        <time>2016-10-15T08:12:42Z</time>
      </trkpt>
      <trkpt lat="43.49417" lon="6.92788">
        <ele>118</ele>
        <time>2016-10-15T08:12:45Z</time>
      </trkpt>
      <trkpt lat="43.49426" lon="6.92791">
        <ele>118</ele>
        <time>2016-10-15T08:12:51Z</time>
      </trkpt>
      <trkpt lat="43.49439" lon="6.92803">
        <ele>120</ele>
        <time>2016-10-15T08:13:01Z</time>
      </trkpt>
      <trkpt lat="43.49448" lon="6.92806">
        <ele>121</ele>
        <time>2016-10-15T08:13:06Z</time>
      </trkpt>
      <trkpt lat="43.4947" lon="6.92786">
        <ele>122</ele>
        <time>2016-10-15T08:13:22Z</time>
      </trkpt>
      <trkpt lat="43.4948" lon="6.9278">
        <ele>123</ele>
        <time>2016-10-15T08:13:30Z</time>
      </trkpt>
      <trkpt lat="43.49485" lon="6.92782">
        <ele>125</ele>
        <time>2016-10-15T08:13:35Z</time>
      </trkpt>
      <trkpt lat="43.49485" lon="6.92788">
        <ele>126</ele>
        <time>2016-10-15T08:13:40Z</time>
      </trkpt>
      <trkpt lat="43.4948" lon="6.92798">
        <ele>127</ele>
        <time>2016-10-15T08:13:46Z</time>
      </trkpt>
      <trkpt lat="43.49463" lon="6.92829">
        <ele>129</ele>
        <time>2016-10-15T08:14:04Z</time>
      </trkpt>
      <trkpt lat="43.49454" lon="6.92841">
        <ele>130</ele>
        <time>2016-10-15T08:14:12Z</time>
      </trkpt>
      <trkpt lat="43.49438" lon="6.92838">
        <ele>133</ele>
        <time>2016-10-15T08:14:25Z</time>
      </trkpt>
      <trkpt lat="43.49422" lon="6.92843">
        <ele>135</ele>
        <time>2016-10-15T08:14:36Z</time>
      </trkpt>
      <trkpt lat="43.49411" lon="6.92852">
        <ele>136</ele>
        <time>2016-10-15T08:14:45Z</time>
      </trkpt>
      <trkpt lat="43.49403" lon="6.92869">
        <ele>138</ele>
        <time>2016-10-15T08:14:55Z</time>
      </trkpt>
      <trkpt lat="43.49401" lon="6.92884">
        <ele>138</ele>
        <time>2016-10-15T08:15:02Z</time>
      </trkpt>
      <trkpt lat="43.49401" lon="6.92891">
        <ele>139</ele>
        <time>2016-10-15T08:15:06Z</time>
      </trkpt>
      <trkpt lat="43.4941" lon="6.92928">
        <ele>141</ele>
        <time>2016-10-15T08:15:26Z</time>
      </trkpt>
      <trkpt lat="43.49411" lon="6.92937">
        <ele>142</ele>
        <time>2016-10-15T08:15:30Z</time>
      </trkpt>
      <trkpt lat="43.4941" lon="6.92945">
        <ele>143</ele>
        <time>2016-10-15T08:15:34Z</time>
      </trkpt>
      <trkpt lat="43.4941" lon="6.92947">
        <ele>142</ele>
        <time>2016-10-15T08:15:35Z</time>
      </trkpt>
      <trkpt lat="43.49406" lon="6.92958">
        <ele>144</ele>
        <time>2016-10-15T08:15:41Z</time>
      </trkpt>
      <trkpt lat="43.49403" lon="6.92978">
        <ele>145</ele>
        <time>2016-10-15T08:15:51Z</time>
      </trkpt>
      <trkpt lat="43.49404" lon="6.92992">
        <ele>146</ele>
        <time>2016-10-15T08:15:58Z</time>
      </trkpt>
      <trkpt lat="43.49406" lon="6.93004">
        <ele>146</ele>
        <time>2016-10-15T08:16:05Z</time>
      </trkpt>
      <trkpt lat="43.49405" lon="6.93026">
        <ele>148</ele>
        <time>2016-10-15T08:16:16Z</time>
      </trkpt>
      <trkpt lat="43.494" lon="6.93044">
        <ele>149</ele>
        <time>2016-10-15T08:16:26Z</time>
      </trkpt>
      <trkpt lat="43.49391" lon="6.93071">
        <ele>152</ele>
        <time>2016-10-15T08:16:42Z</time>
      </trkpt>
      <trkpt lat="43.49369" lon="6.9311">
        <ele>155</ele>
        <time>2016-10-15T08:17:07Z</time>
      </trkpt>
      <trkpt lat="43.49363" lon="6.93126">
        <ele>156</ele>
        <time>2016-10-15T08:17:15Z</time>
      </trkpt>
      <trkpt lat="43.49356" lon="6.9315">
        <ele>157</ele>
        <time>2016-10-15T08:17:27Z</time>
      </trkpt>
      <trkpt lat="43.49356" lon="6.93165">
        <ele>159</ele>
        <time>2016-10-15T08:17:35Z</time>
      </trkpt>
      <trkpt lat="43.4936" lon="6.93182">
        <ele>160</ele>
        <time>2016-10-15T08:17:44Z</time>
      </trkpt>
      <trkpt lat="43.49362" lon="6.93188">
        <ele>162</ele>
        <time>2016-10-15T08:17:48Z</time>
      </trkpt>
      <trkpt lat="43.49363" lon="6.93189">
        <ele>161</ele>
        <time>2016-10-15T08:17:49Z</time>
      </trkpt>
      <trkpt lat="43.49365" lon="6.93196">
        <ele>162</ele>
        <time>2016-10-15T08:17:53Z</time>
      </trkpt>
      <trkpt lat="43.49368" lon="6.93199">
        <ele>162</ele>
        <time>2016-10-15T08:17:55Z</time>
      </trkpt>
      <trkpt lat="43.49373" lon="6.93199">
        <ele>163</ele>
        <time>2016-10-15T08:17:58Z</time>
      </trkpt>
      <trkpt lat="43.49376" lon="6.93194">
        <ele>164</ele>
        <time>2016-10-15T08:18:01Z</time>
      </trkpt>
      <trkpt lat="43.49371" lon="6.93178">
        <ele>165</ele>
        <time>2016-10-15T08:18:09Z</time>
      </trkpt>
      <trkpt lat="43.49372" lon="6.93169">
        <ele>165</ele>
        <time>2016-10-15T08:18:14Z</time>
      </trkpt>
      <trkpt lat="43.49376" lon="6.93156">
        <ele>166</ele>
        <time>2016-10-15T08:18:23Z</time>
      </trkpt>
      <trkpt lat="43.49382" lon="6.93147">
        <ele>167</ele>
        <time>2016-10-15T08:18:29Z</time>
      </trkpt>
      <trkpt lat="43.49392" lon="6.93138">
        <ele>167</ele>
        <time>2016-10-15T08:18:39Z</time>
      </trkpt>
      <trkpt lat="43.49408" lon="6.93128">
        <ele>170</ele>
        <time>2016-10-15T08:18:52Z</time>
      </trkpt>
      <trkpt lat="43.49434" lon="6.93116">
        <ele>172</ele>
        <time>2016-10-15T08:19:11Z</time>
      </trkpt>
      <trkpt lat="43.49438" lon="6.93117">
        <ele>172</ele>
        <time>2016-10-15T08:19:15Z</time>
      </trkpt>
      <trkpt lat="43.49442" lon="6.93124">
        <ele>172</ele>
        <time>2016-10-15T08:19:20Z</time>
      </trkpt>
      <trkpt lat="43.49443" lon="6.93143">
        <ele>172</ele>
        <time>2016-10-15T08:19:25Z</time>
      </trkpt>
      <trkpt lat="43.49442" lon="6.93156">
        <ele>171</ele>
        <time>2016-10-15T08:19:28Z</time>
      </trkpt>
      <trkpt lat="43.49436" lon="6.93179">
        <ele>170</ele>
        <time>2016-10-15T08:19:33Z</time>
      </trkpt>
      <trkpt lat="43.49415" lon="6.93213">
        <ele>169</ele>
        <time>2016-10-15T08:19:42Z</time>
      </trkpt>
      <trkpt lat="43.49408" lon="6.93229">
        <ele>169</ele>
        <time>2016-10-15T08:19:46Z</time>
      </trkpt>
      <trkpt lat="43.49404" lon="6.9324">
        <ele>171</ele>
        <time>2016-10-15T08:19:51Z</time>
      </trkpt>
      <trkpt lat="43.49399" lon="6.9327">
        <ele>174</ele>
        <time>2016-10-15T08:20:08Z</time>
      </trkpt>
      <trkpt lat="43.49395" lon="6.93275">
        <ele>174</ele>
        <time>2016-10-15T08:20:13Z</time>
      </trkpt>
      <trkpt lat="43.49391" lon="6.93283">
        <ele>176</ele>
        <time>2016-10-15T08:20:19Z</time>
      </trkpt>
      <trkpt lat="43.49388" lon="6.93286">
        <ele>178</ele>
        <time>2016-10-15T08:20:23Z</time>
      </trkpt>
      <trkpt lat="43.49382" lon="6.93297">
        <ele>179</ele>
        <time>2016-10-15T08:20:29Z</time>
      </trkpt>
      <trkpt lat="43.49381" lon="6.93299">
        <ele>181</ele>
        <time>2016-10-15T08:20:31Z</time>
      </trkpt>
      <trkpt lat="43.49381" lon="6.93303">
        <ele>181</ele>
        <time>2016-10-15T08:20:33Z</time>
      </trkpt>
      <trkpt lat="43.49375" lon="6.93307">
        <ele>182</ele>
        <time>2016-10-15T08:20:40Z</time>
      </trkpt>
      <trkpt lat="43.4937" lon="6.93304">
        <ele>182</ele>
        <time>2016-10-15T08:20:46Z</time>
      </trkpt>
      <trkpt lat="43.49366" lon="6.93306">
        <ele>182</ele>
        <time>2016-10-15T08:20:50Z</time>
      </trkpt>
      <trkpt lat="43.4936" lon="6.93306">
        <ele>184</ele>
        <time>2016-10-15T08:20:55Z</time>
      </trkpt>
      <trkpt lat="43.49351" lon="6.93308">
        <ele>184</ele>
        <time>2016-10-15T08:21:03Z</time>
      </trkpt>
      <trkpt lat="43.49347" lon="6.93312">
        <ele>184</ele>
        <time>2016-10-15T08:21:07Z</time>
      </trkpt>
      <trkpt lat="43.49342" lon="6.93319">
        <ele>186</ele>
        <time>2016-10-15T08:21:12Z</time>
      </trkpt>
      <trkpt lat="43.49339" lon="6.9333">
        <ele>186</ele>
        <time>2016-10-15T08:21:18Z</time>
      </trkpt>
      <trkpt lat="43.49341" lon="6.93341">
        <ele>187</ele>
        <time>2016-10-15T08:21:25Z</time>
      </trkpt>
      <trkpt lat="43.49351" lon="6.93357">
        <ele>190</ele>
        <time>2016-10-15T08:21:39Z</time>
      </trkpt>
      <trkpt lat="43.49353" lon="6.93363">
        <ele>190</ele>
        <time>2016-10-15T08:21:42Z</time>
      </trkpt>
      <trkpt lat="43.49353" lon="6.93369">
        <ele>191</ele>
        <time>2016-10-15T08:21:45Z</time>
      </trkpt>
      <trkpt lat="43.49346" lon="6.93408">
        <ele>191</ele>
        <time>2016-10-15T08:21:58Z</time>
      </trkpt>
      <trkpt lat="43.49343" lon="6.93445">
        <ele>190</ele>
        <time>2016-10-15T08:22:07Z</time>
      </trkpt>
      <trkpt lat="43.49335" lon="6.93479">
        <ele>190</ele>
        <time>2016-10-15T08:22:14Z</time>
      </trkpt>
      <trkpt lat="43.49337" lon="6.93505">
        <ele>187</ele>
        <time>2016-10-15T08:22:17Z</time>
      </trkpt>
      <trkpt lat="43.49342" lon="6.93525">
        <ele>183</ele>
        <time>2016-10-15T08:22:19Z</time>
      </trkpt>
      <trkpt lat="43.49347" lon="6.93551">
        <ele>182</ele>
        <time>2016-10-15T08:22:22Z</time>
      </trkpt>
      <trkpt lat="43.49348" lon="6.93571">
        <ele>180</ele>
        <time>2016-10-15T08:22:25Z</time>
      </trkpt>
      <trkpt lat="43.49346" lon="6.93584">
        <ele>180</ele>
        <time>2016-10-15T08:22:27Z</time>
      </trkpt>
      <trkpt lat="43.4933" lon="6.93632">
        <ele>180</ele>
        <time>2016-10-15T08:22:36Z</time>
      </trkpt>
      <trkpt lat="43.49326" lon="6.93646">
        <ele>182</ele>
        <time>2016-10-15T08:22:41Z</time>
      </trkpt>
      <trkpt lat="43.49325" lon="6.93651">
        <ele>184</ele>
        <time>2016-10-15T08:22:44Z</time>
      </trkpt>
      <trkpt lat="43.49324" lon="6.9366">
        <ele>184</ele>
        <time>2016-10-15T08:22:47Z</time>
      </trkpt>
      <trkpt lat="43.49317" lon="6.93695">
        <ele>188</ele>
        <time>2016-10-15T08:22:59Z</time>
      </trkpt>
      <trkpt lat="43.49315" lon="6.93714">
        <ele>188</ele>
        <time>2016-10-15T08:23:05Z</time>
      </trkpt>
      <trkpt lat="43.4931" lon="6.93741">
        <ele>190</ele>
        <time>2016-10-15T08:23:14Z</time>
      </trkpt>
      <trkpt lat="43.49311" lon="6.93784">
        <ele>190</ele>
        <time>2016-10-15T08:23:25Z</time>
      </trkpt>
      <trkpt lat="43.49305" lon="6.93829">
        <ele>190</ele>
        <time>2016-10-15T08:23:35Z</time>
      </trkpt>
      <trkpt lat="43.49304" lon="6.93842">
        <ele>190</ele>
        <time>2016-10-15T08:23:38Z</time>
      </trkpt>
      <trkpt lat="43.49306" lon="6.93865">
        <ele>190</ele>
        <time>2016-10-15T08:23:43Z</time>
      </trkpt>
      <trkpt lat="43.49309" lon="6.93888">
        <ele>190</ele>
        <time>2016-10-15T08:23:48Z</time>
      </trkpt>
      <trkpt lat="43.49315" lon="6.93913">
        <ele>190</ele>
        <time>2016-10-15T08:23:54Z</time>
      </trkpt>
      <trkpt lat="43.49332" lon="6.94007">
        <ele>182</ele>
        <time>2016-10-15T08:24:07Z</time>
      </trkpt>
      <trkpt lat="43.49343" lon="6.94151">
        <ele>174</ele>
        <time>2016-10-15T08:24:21Z</time>
      </trkpt>
      <trkpt lat="43.49346" lon="6.94175">
        <ele>169</ele>
        <time>2016-10-15T08:24:23Z</time>
      </trkpt>
      <trkpt lat="43.49348" lon="6.94201">
        <ele>168</ele>
        <time>2016-10-15T08:24:25Z</time>
      </trkpt>
      <trkpt lat="43.49348" lon="6.94214">
        <ele>166</ele>
        <time>2016-10-15T08:24:26Z</time>
      </trkpt>
      <trkpt lat="43.49349" lon="6.94235">
        <ele>166</ele>
        <time>2016-10-15T08:24:28Z</time>
      </trkpt>
      <trkpt lat="43.4935" lon="6.94242">
        <ele>165</ele>
        <time>2016-10-15T08:24:29Z</time>
      </trkpt>
      <trkpt lat="43.49357" lon="6.94249">
        <ele>165</ele>
        <time>2016-10-15T08:24:31Z</time>
      </trkpt>
      <trkpt lat="43.49374" lon="6.94252">
        <ele>162</ele>
        <time>2016-10-15T08:24:34Z</time>
      </trkpt>
      <trkpt lat="43.49404" lon="6.9425">
        <ele>160</ele>
        <time>2016-10-15T08:24:38Z</time>
      </trkpt>
      <trkpt lat="43.49428" lon="6.94251">
        <ele>160</ele>
        <time>2016-10-15T08:24:42Z</time>
      </trkpt>
      <trkpt lat="43.49433" lon="6.94251">
        <ele>162</ele>
        <time>2016-10-15T08:24:43Z</time>
      </trkpt>
      <trkpt lat="43.49455" lon="6.9425">
        <ele>165</ele>
        <time>2016-10-15T08:24:49Z</time>
      </trkpt>
      <trkpt lat="43.49498" lon="6.94249">
        <ele>165</ele>
        <time>2016-10-15T08:25:02Z</time>
      </trkpt>
      <trkpt lat="43.4952" lon="6.94245">
        <ele>165</ele>
        <time>2016-10-15T08:25:08Z</time>
      </trkpt>
      <trkpt lat="43.49528" lon="6.94243">
        <ele>163</ele>
        <time>2016-10-15T08:25:10Z</time>
      </trkpt>
      <trkpt lat="43.4954" lon="6.94241">
        <ele>163</ele>
        <time>2016-10-15T08:25:14Z</time>
      </trkpt>
      <trkpt lat="43.49545" lon="6.94244">
        <ele>163</ele>
        <time>2016-10-15T08:25:17Z</time>
      </trkpt>
      <trkpt lat="43.49547" lon="6.94255">
        <ele>162</ele>
        <time>2016-10-15T08:25:20Z</time>
      </trkpt>
      <trkpt lat="43.49551" lon="6.94263">
        <ele>162</ele>
        <time>2016-10-15T08:25:23Z</time>
      </trkpt>
      <trkpt lat="43.49554" lon="6.94268">
        <ele>162</ele>
        <time>2016-10-15T08:25:25Z</time>
      </trkpt>
      <trkpt lat="43.49558" lon="6.94269">
        <ele>162</ele>
        <time>2016-10-15T08:25:27Z</time>
      </trkpt>
      <trkpt lat="43.49569" lon="6.94258">
        <ele>162</ele>
        <time>2016-10-15T08:25:35Z</time>
      </trkpt>
      <trkpt lat="43.49578" lon="6.9425">
        <ele>165</ele>
        <time>2016-10-15T08:25:41Z</time>
      </trkpt>
      <trkpt lat="43.49586" lon="6.94248">
        <ele>166</ele>
        <time>2016-10-15T08:25:46Z</time>
      </trkpt>
      <trkpt lat="43.49588" lon="6.94247">
        <ele>165</ele>
        <time>2016-10-15T08:25:47Z</time>
      </trkpt>
      <trkpt lat="43.49593" lon="6.94246">
        <ele>167</ele>
        <time>2016-10-15T08:25:50Z</time>
      </trkpt>
      <trkpt lat="43.496" lon="6.94243">
        <ele>167</ele>
        <time>2016-10-15T08:25:55Z</time>
      </trkpt>
      <trkpt lat="43.49608" lon="6.9424">
        <ele>169</ele>
        <time>2016-10-15T08:26:00Z</time>
      </trkpt>
      <trkpt lat="43.49658" lon="6.94205">
        <ele>173</ele>
        <time>2016-10-15T08:26:34Z</time>
      </trkpt>
      <trkpt lat="43.49672" lon="6.9419">
        <ele>175</ele>
        <time>2016-10-15T08:26:45Z</time>
      </trkpt>
      <trkpt lat="43.49681" lon="6.9418">
        <ele>178</ele>
        <time>2016-10-15T08:26:53Z</time>
      </trkpt>
      <trkpt lat="43.49697" lon="6.94168">
        <ele>179</ele>
        <time>2016-10-15T08:27:04Z</time>
      </trkpt>
      <trkpt lat="43.49705" lon="6.94166">
        <ele>179</ele>
        <time>2016-10-15T08:27:09Z</time>
      </trkpt>
      <trkpt lat="43.49719" lon="6.94166">
        <ele>180</ele>
        <time>2016-10-15T08:27:18Z</time>
      </trkpt>
      <trkpt lat="43.49725" lon="6.94166">
        <ele>182</ele>
        <time>2016-10-15T08:27:22Z</time>
      </trkpt>
      <trkpt lat="43.49739" lon="6.94166">
        <ele>182</ele>
        <time>2016-10-15T08:27:30Z</time>
      </trkpt>
      <trkpt lat="43.49752" lon="6.94166">
        <ele>184</ele>
        <time>2016-10-15T08:27:39Z</time>
      </trkpt>
      <trkpt lat="43.4978" lon="6.94163">
        <ele>185</ele>
        <time>2016-10-15T08:27:55Z</time>
      </trkpt>
      <trkpt lat="43.49792" lon="6.94159">
        <ele>186</ele>
        <time>2016-10-15T08:28:02Z</time>
      </trkpt>
      <trkpt lat="43.49814" lon="6.94146">
        <ele>186</ele>
        <time>2016-10-15T08:28:15Z</time>
      </trkpt>
      <trkpt lat="43.49832" lon="6.9414">
        <ele>187</ele>
        <time>2016-10-15T08:28:27Z</time>
      </trkpt>
      <trkpt lat="43.49835" lon="6.94141">
        <ele>188</ele>
        <time>2016-10-15T08:28:29Z</time>
      </trkpt>
      <trkpt lat="43.49837" lon="6.94143">
        <ele>189</ele>
        <time>2016-10-15T08:28:31Z</time>
      </trkpt>
      <trkpt lat="43.49834" lon="6.9415">
        <ele>189</ele>
        <time>2016-10-15T08:28:38Z</time>
      </trkpt>
      <trkpt lat="43.49834" lon="6.94148">
        <ele>190</ele>
        <time>2016-10-15T08:28:52Z</time>
      </trkpt>
      <trkpt lat="43.49832" lon="6.94149">
        <ele>190</ele>
        <time>2016-10-15T08:29:00Z</time>
      </trkpt>
      <trkpt lat="43.49822" lon="6.94161">
        <ele>190</ele>
        <time>2016-10-15T08:29:12Z</time>
      </trkpt>
      <trkpt lat="43.49817" lon="6.94168">
        <ele>190</ele>
        <time>2016-10-15T08:29:16Z</time>
      </trkpt>
      <trkpt lat="43.49812" lon="6.94175">
        <ele>192</ele>
        <time>2016-10-15T08:29:20Z</time>
      </trkpt>
      <trkpt lat="43.49798" lon="6.94194">
        <ele>193</ele>
        <time>2016-10-15T08:29:33Z</time>
      </trkpt>
      <trkpt lat="43.49772" lon="6.94227">
        <ele>198</ele>
        <time>2016-10-15T08:30:00Z</time>
      </trkpt>
      <trkpt lat="43.49764" lon="6.94242">
        <ele>199</ele>
        <time>2016-10-15T08:30:08Z</time>
      </trkpt>
      <trkpt lat="43.4976" lon="6.94267">
        <ele>199</ele>
        <time>2016-10-15T08:30:18Z</time>
      </trkpt>
      <trkpt lat="43.49761" lon="6.94288">
        <ele>198</ele>
        <time>2016-10-15T08:30:24Z</time>
      </trkpt>
      <trkpt lat="43.49763" lon="6.94298">
        <ele>198</ele>
        <time>2016-10-15T08:30:26Z</time>
      </trkpt>
      <trkpt lat="43.4977" lon="6.94315">
        <ele>197</ele>
        <time>2016-10-15T08:30:29Z</time>
      </trkpt>
      <trkpt lat="43.49782" lon="6.94341">
        <ele>198</ele>
        <time>2016-10-15T08:30:38Z</time>
      </trkpt>
      <trkpt lat="43.49787" lon="6.94355">
        <ele>201</ele>
        <time>2016-10-15T08:30:44Z</time>
      </trkpt>
      <trkpt lat="43.49791" lon="6.94371">
        <ele>201</ele>
        <time>2016-10-15T08:30:50Z</time>
      </trkpt>
      <trkpt lat="43.49792" lon="6.94406">
        <ele>202</ele>
        <time>2016-10-15T08:31:00Z</time>
      </trkpt>
      <trkpt lat="43.49796" lon="6.94439">
        <ele>202</ele>
        <time>2016-10-15T08:31:10Z</time>
      </trkpt>
      <trkpt lat="43.49811" lon="6.94497">
        <ele>202</ele>
        <time>2016-10-15T08:31:26Z</time>
      </trkpt>
      <trkpt lat="43.4983" lon="6.94543">
        <ele>202</ele>
        <time>2016-10-15T08:31:39Z</time>
      </trkpt>
      <trkpt lat="43.49846" lon="6.94573">
        <ele>203</ele>
        <time>2016-10-15T08:31:48Z</time>
      </trkpt>
      <trkpt lat="43.4987" lon="6.94615">
        <ele>203</ele>
        <time>2016-10-15T08:32:01Z</time>
      </trkpt>
      <trkpt lat="43.49899" lon="6.9466">
        <ele>204</ele>
        <time>2016-10-15T08:32:15Z</time>
      </trkpt>
      <trkpt lat="43.49912" lon="6.9468">
        <ele>204</ele>
        <time>2016-10-15T08:32:21Z</time>
      </trkpt>
      <trkpt lat="43.49926" lon="6.94697">
        <ele>204</ele>
        <time>2016-10-15T08:32:27Z</time>
      </trkpt>
      <trkpt lat="43.49963" lon="6.94731">
        <ele>205</ele>
        <time>2016-10-15T08:32:41Z</time>
      </trkpt>
      <trkpt lat="43.49993" lon="6.94753">
        <ele>205</ele>
        <time>2016-10-15T08:32:52Z</time>
      </trkpt>
      <trkpt lat="43.50031" lon="6.94777">
        <ele>206</ele>
        <time>2016-10-15T08:33:06Z</time>
      </trkpt>
      <trkpt lat="43.50057" lon="6.94791">
        <ele>207</ele>
        <time>2016-10-15T08:33:16Z</time>
      </trkpt>
      <trkpt lat="43.50061" lon="6.94791">
        <ele>208</ele>
        <time>2016-10-15T08:33:19Z</time>
      </trkpt>
      <trkpt lat="43.50065" lon="6.94785">
        <ele>208</ele>
        <time>2016-10-15T08:33:24Z</time>
      </trkpt>
      <trkpt lat="43.50067" lon="6.94786">
        <ele>208</ele>
        <time>2016-10-15T08:33:26Z</time>
      </trkpt>
      <trkpt lat="43.50066" lon="6.9479">
        <ele>208</ele>
        <time>2016-10-15T08:33:28Z</time>
      </trkpt>
      <trkpt lat="43.50059" lon="6.94796">
        <ele>208</ele>
        <time>2016-10-15T08:33:38Z</time>
      </trkpt>
      <trkpt lat="43.50058" lon="6.94795">
        <ele>208</ele>
        <time>2016-10-15T08:33:43Z</time>
      </trkpt>
      <trkpt lat="43.50059" lon="6.94788">
        <ele>208</ele>
        <time>2016-10-15T08:33:53Z</time>
      </trkpt>
      <trkpt lat="43.50059" lon="6.94784">
        <ele>210</ele>
        <time>2016-10-15T08:34:00Z</time>
      </trkpt>
      <trkpt lat="43.50058" lon="6.9478">
        <ele>210</ele>
        <time>2016-10-15T08:34:03Z</time>
      </trkpt>
      <trkpt lat="43.50049" lon="6.9476">
        <ele>215</ele>
        <time>2016-10-15T08:34:32Z</time>
      </trkpt>
      <trkpt lat="43.50049" lon="6.94752">
        <ele>215</ele>
        <time>2016-10-15T08:34:42Z</time>
      </trkpt>
      <trkpt lat="43.50047" lon="6.94746">
        <ele>217</ele>
        <time>2016-10-15T08:34:52Z</time>
      </trkpt>
      <trkpt lat="43.50043" lon="6.94736">
        <ele>221</ele>
        <time>2016-10-15T08:35:14Z</time>
      </trkpt>
      <trkpt lat="43.50041" lon="6.94735">
        <ele>221</ele>
        <time>2016-10-15T08:35:22Z</time>
      </trkpt>
      <trkpt lat="43.50039" lon="6.94731">
        <ele>222</ele>
        <time>2016-10-15T08:35:30Z</time>
      </trkpt>
      <trkpt lat="43.50037" lon="6.9473">
        <ele>224</ele>
        <time>2016-10-15T08:35:37Z</time>
      </trkpt>
      <trkpt lat="43.50036" lon="6.94727">
        <ele>225</ele>
        <time>2016-10-15T08:35:42Z</time>
      </trkpt>
      <trkpt lat="43.50032" lon="6.94723">
        <ele>226</ele>
        <time>2016-10-15T08:35:53Z</time>
      </trkpt>
      <trkpt lat="43.50029" lon="6.94718">
        <ele>228</ele>
        <time>2016-10-15T08:36:02Z</time>
      </trkpt>
      <trkpt lat="43.50027" lon="6.94702">
        <ele>232</ele>
        <time>2016-10-15T08:36:27Z</time>
      </trkpt>
      <trkpt lat="43.50014" lon="6.94675">
        <ele>240</ele>
        <time>2016-10-15T08:37:19Z</time>
      </trkpt>
      <trkpt lat="43.50012" lon="6.94669">
        <ele>240</ele>
        <time>2016-10-15T08:37:28Z</time>
      </trkpt>
      <trkpt lat="43.50006" lon="6.94649">
        <ele>245</ele>
        <time>2016-10-15T08:38:00Z</time>
      </trkpt>
      <trkpt lat="43.49996" lon="6.94637">
        <ele>249</ele>
        <time>2016-10-15T08:38:25Z</time>
      </trkpt>
      <trkpt lat="43.49994" lon="6.94624">
        <ele>251</ele>
        <time>2016-10-15T08:38:40Z</time>
      </trkpt>
      <trkpt lat="43.49991" lon="6.94621">
        <ele>252</ele>
        <time>2016-10-15T08:38:46Z</time>
      </trkpt>
      <trkpt lat="43.49992" lon="6.94613">
        <ele>252</ele>
        <time>2016-10-15T08:38:54Z</time>
      </trkpt>
      <trkpt lat="43.49989" lon="6.94608">
        <ele>253</ele>
        <time>2016-10-15T08:39:01Z</time>
      </trkpt>
      <trkpt lat="43.49989" lon="6.94607">
        <ele>252</ele>
        <time>2016-10-15T08:39:02Z</time>
      </trkpt>
      <trkpt lat="43.49984" lon="6.94592">
        <ele>254</ele>
        <time>2016-10-15T08:39:17Z</time>
      </trkpt>
      <trkpt lat="43.49981" lon="6.9459">
        <ele>254</ele>
        <time>2016-10-15T08:39:22Z</time>
      </trkpt>
      <trkpt lat="43.49975" lon="6.9459">
        <ele>256</ele>
        <time>2016-10-15T08:39:32Z</time>
      </trkpt>
      <trkpt lat="43.49972" lon="6.94588">
        <ele>257</ele>
        <time>2016-10-15T08:39:36Z</time>
      </trkpt>
      <trkpt lat="43.49969" lon="6.94584">
        <ele>257</ele>
        <time>2016-10-15T08:39:41Z</time>
      </trkpt>
      <trkpt lat="43.49969" lon="6.94577">
        <ele>257</ele>
        <time>2016-10-15T08:40:31Z</time>
      </trkpt>
      <trkpt lat="43.4997" lon="6.94578">
        <ele>257</ele>
        <time>2016-10-15T08:40:53Z</time>
      </trkpt>
      <trkpt lat="43.49969" lon="6.94574">
        <ele>257</ele>
        <time>2016-10-15T08:40:57Z</time>
      </trkpt>
      <trkpt lat="43.49964" lon="6.94563">
        <ele>257</ele>
        <time>2016-10-15T08:41:22Z</time>
      </trkpt>
      <trkpt lat="43.49948" lon="6.94551">
        <ele>257</ele>
        <time>2016-10-15T08:41:33Z</time>
      </trkpt>
      <trkpt lat="43.49947" lon="6.94547">
        <ele>257</ele>
        <time>2016-10-15T08:41:35Z</time>
      </trkpt>
      <trkpt lat="43.4995" lon="6.94542">
        <ele>255</ele>
        <time>2016-10-15T08:41:37Z</time>
      </trkpt>
      <trkpt lat="43.49951" lon="6.94538">
        <ele>254</ele>
        <time>2016-10-15T08:41:38Z</time>
      </trkpt>
      <trkpt lat="43.49948" lon="6.94528">
        <ele>252</ele>
        <time>2016-10-15T08:41:40Z</time>
      </trkpt>
      <trkpt lat="43.49946" lon="6.94525">
        <ele>252</ele>
        <time>2016-10-15T08:41:41Z</time>
      </trkpt>
      <trkpt lat="43.49931" lon="6.94518">
        <ele>252</ele>
        <time>2016-10-15T08:41:46Z</time>
      </trkpt>
      <trkpt lat="43.49922" lon="6.94512">
        <ele>252</ele>
        <time>2016-10-15T08:41:49Z</time>
      </trkpt>
      <trkpt lat="43.49917" lon="6.94505">
        <ele>252</ele>
        <time>2016-10-15T08:41:51Z</time>
      </trkpt>
      <trkpt lat="43.49909" lon="6.94489">
        <ele>252</ele>
        <time>2016-10-15T08:41:55Z</time>
      </trkpt>
      <trkpt lat="43.499" lon="6.94481">
        <ele>251</ele>
        <time>2016-10-15T08:42:00Z</time>
      </trkpt>
      <trkpt lat="43.49897" lon="6.94476">
        <ele>251</ele>
        <time>2016-10-15T08:42:03Z</time>
      </trkpt>
      <trkpt lat="43.49893" lon="6.9446">
        <ele>248</ele>
        <time>2016-10-15T08:42:07Z</time>
      </trkpt>
      <trkpt lat="43.49884" lon="6.94444">
        <ele>248</ele>
        <time>2016-10-15T08:42:11Z</time>
      </trkpt>
      <trkpt lat="43.49877" lon="6.94428">
        <ele>244</ele>
        <time>2016-10-15T08:42:16Z</time>
      </trkpt>
      <trkpt lat="43.49877" lon="6.94418">
        <ele>242</ele>
        <time>2016-10-15T08:42:19Z</time>
      </trkpt>
      <trkpt lat="43.49884" lon="6.94394">
        <ele>238</ele>
        <time>2016-10-15T08:42:25Z</time>
      </trkpt>
      <trkpt lat="43.49887" lon="6.9437">
        <ele>237</ele>
        <time>2016-10-15T08:42:29Z</time>
      </trkpt>
      <trkpt lat="43.49881" lon="6.94358">
        <ele>236</ele>
        <time>2016-10-15T08:42:33Z</time>
      </trkpt>
      <trkpt lat="43.49882" lon="6.94328">
        <ele>230</ele>
        <time>2016-10-15T08:42:42Z</time>
      </trkpt>
      <trkpt lat="43.4988" lon="6.94325">
        <ele>229</ele>
        <time>2016-10-15T08:42:45Z</time>
      </trkpt>
      <trkpt lat="43.49881" lon="6.94324">
        <ele>230</ele>
        <time>2016-10-15T08:42:46Z</time>
      </trkpt>
      <trkpt lat="43.4988" lon="6.9432">
        <ele>228</ele>
        <time>2016-10-15T08:42:48Z</time>
      </trkpt>
      <trkpt lat="43.49878" lon="6.94316">
        <ele>228</ele>
        <time>2016-10-15T08:42:50Z</time>
      </trkpt>
      <trkpt lat="43.49864" lon="6.94312">
        <ele>226</ele>
        <time>2016-10-15T08:42:56Z</time>
      </trkpt>
      <trkpt lat="43.49853" lon="6.94312">
        <ele>224</ele>
        <time>2016-10-15T08:42:59Z</time>
      </trkpt>
      <trkpt lat="43.49847" lon="6.94304">
        <ele>222</ele>
        <time>2016-10-15T08:43:02Z</time>
      </trkpt>
      <trkpt lat="43.49839" lon="6.94298">
        <ele>219</ele>
        <time>2016-10-15T08:43:05Z</time>
      </trkpt>
      <trkpt lat="43.49839" lon="6.94293">
        <ele>217</ele>
        <time>2016-10-15T08:43:07Z</time>
      </trkpt>
      <trkpt lat="43.49843" lon="6.94285">
        <ele>217</ele>
        <time>2016-10-15T08:43:10Z</time>
      </trkpt>
      <trkpt lat="43.4984" lon="6.94279">
        <ele>215</ele>
        <time>2016-10-15T08:43:13Z</time>
      </trkpt>
      <trkpt lat="43.49838" lon="6.94278">
        <ele>215</ele>
        <time>2016-10-15T08:43:14Z</time>
      </trkpt>
      <trkpt lat="43.49828" lon="6.94282">
        <ele>213</ele>
        <time>2016-10-15T08:43:17Z</time>
      </trkpt>
      <trkpt lat="43.49825" lon="6.94282">
        <ele>213</ele>
        <time>2016-10-15T08:43:19Z</time>
      </trkpt>
      <trkpt lat="43.49821" lon="6.94281">
        <ele>210</ele>
        <time>2016-10-15T08:43:21Z</time>
      </trkpt>
      <trkpt lat="43.49813" lon="6.94287">
        <ele>209</ele>
        <time>2016-10-15T08:43:30Z</time>
      </trkpt>
      <trkpt lat="43.49807" lon="6.94281">
        <ele>207</ele>
        <time>2016-10-15T08:43:33Z</time>
      </trkpt>
      <trkpt lat="43.49804" lon="6.9428">
        <ele>207</ele>
        <time>2016-10-15T08:43:34Z</time>
      </trkpt>
      <trkpt lat="43.49794" lon="6.94284">
        <ele>206</ele>
        <time>2016-10-15T08:43:38Z</time>
      </trkpt>
      <trkpt lat="43.49779" lon="6.94279">
        <ele>202</ele>
        <time>2016-10-15T08:43:42Z</time>
      </trkpt>
      <trkpt lat="43.49769" lon="6.94275">
        <ele>201</ele>
        <time>2016-10-15T08:43:44Z</time>
      </trkpt>
      <trkpt lat="43.49765" lon="6.94271">
        <ele>200</ele>
        <time>2016-10-15T08:43:45Z</time>
      </trkpt>
      <trkpt lat="43.49763" lon="6.94265">
        <ele>200</ele>
        <time>2016-10-15T08:43:46Z</time>
      </trkpt>
      <trkpt lat="43.49764" lon="6.94255">
        <ele>200</ele>
        <time>2016-10-15T08:43:50Z</time>
      </trkpt>
      <trkpt lat="43.49745" lon="6.94226">
        <ele>199</ele>
        <time>2016-10-15T08:44:05Z</time>
      </trkpt>
      <trkpt lat="43.49728" lon="6.9421">
        <ele>199</ele>
        <time>2016-10-15T08:44:10Z</time>
      </trkpt>
      <trkpt lat="43.4972" lon="6.94207">
        <ele>196</ele>
        <time>2016-10-15T08:44:12Z</time>
      </trkpt>
      <trkpt lat="43.49709" lon="6.94212">
        <ele>195</ele>
        <time>2016-10-15T08:44:15Z</time>
      </trkpt>
      <trkpt lat="43.49683" lon="6.94215">
        <ele>189</ele>
        <time>2016-10-15T08:44:22Z</time>
      </trkpt>
      <trkpt lat="43.49674" lon="6.94225">
        <ele>185</ele>
        <time>2016-10-15T08:44:26Z</time>
      </trkpt>
      <trkpt lat="43.49669" lon="6.94239">
        <ele>182</ele>
        <time>2016-10-15T08:44:29Z</time>
      </trkpt>
      <trkpt lat="43.49651" lon="6.94233">
        <ele>178</ele>
        <time>2016-10-15T08:44:34Z</time>
      </trkpt>
      <trkpt lat="43.49646" lon="6.94233">
        <ele>178</ele>
        <time>2016-10-15T08:44:35Z</time>
      </trkpt>
      <trkpt lat="43.49633" lon="6.94238">
        <ele>176</ele>
        <time>2016-10-15T08:44:38Z</time>
      </trkpt>
      <trkpt lat="43.4961" lon="6.94256">
        <ele>173</ele>
        <time>2016-10-15T08:44:44Z</time>
      </trkpt>
      <trkpt lat="43.49604" lon="6.94268">
        <ele>172</ele>
        <time>2016-10-15T08:44:46Z</time>
      </trkpt>
      <trkpt lat="43.49601" lon="6.94271">
        <ele>171</ele>
        <time>2016-10-15T08:44:47Z</time>
      </trkpt>
      <trkpt lat="43.49583" lon="6.94275">
        <ele>167</ele>
        <time>2016-10-15T08:44:53Z</time>
      </trkpt>
      <trkpt lat="43.49575" lon="6.94273">
        <ele>167</ele>
        <time>2016-10-15T08:44:57Z</time>
      </trkpt>
      <trkpt lat="43.49574" lon="6.94274">
        <ele>166</ele>
        <time>2016-10-15T08:44:58Z</time>
      </trkpt>
      <trkpt lat="43.49573" lon="6.94283">
        <ele>165</ele>
        <time>2016-10-15T08:45:03Z</time>
      </trkpt>
      <trkpt lat="43.49571" lon="6.94286">
        <ele>165</ele>
        <time>2016-10-15T08:45:05Z</time>
      </trkpt>
      <trkpt lat="43.49564" lon="6.94281">
        <ele>164</ele>
        <time>2016-10-15T08:45:08Z</time>
      </trkpt>
      <trkpt lat="43.4956" lon="6.94273">
        <ele>163</ele>
        <time>2016-10-15T08:45:10Z</time>
      </trkpt>
      <trkpt lat="43.4956" lon="6.94265">
        <ele>163</ele>
        <time>2016-10-15T08:45:13Z</time>
      </trkpt>
      <trkpt lat="43.49567" lon="6.94257">
        <ele>163</ele>
        <time>2016-10-15T08:45:19Z</time>
      </trkpt>
      <trkpt lat="43.49569" lon="6.94255">
        <ele>165</ele>
        <time>2016-10-15T08:45:20Z</time>
      </trkpt>
      <trkpt lat="43.49574" lon="6.94248">
        <ele>165</ele>
        <time>2016-10-15T08:45:24Z</time>
      </trkpt>
      <trkpt lat="43.49582" lon="6.94244">
        <ele>167</ele>
        <time>2016-10-15T08:45:29Z</time>
      </trkpt>
      <trkpt lat="43.49603" lon="6.9424">
        <ele>169</ele>
        <time>2016-10-15T08:45:41Z</time>
      </trkpt>
      <trkpt lat="43.49609" lon="6.94237">
        <ele>171</ele>
        <time>2016-10-15T08:45:45Z</time>
      </trkpt>
      <trkpt lat="43.49623" lon="6.94229">
        <ele>172</ele>
        <time>2016-10-15T08:45:54Z</time>
      </trkpt>
      <trkpt lat="43.49655" lon="6.94205">
        <ele>174</ele>
        <time>2016-10-15T08:46:14Z</time>
      </trkpt>
      <trkpt lat="43.49684" lon="6.94178">
        <ele>179</ele>
        <time>2016-10-15T08:46:36Z</time>
      </trkpt>
      <trkpt lat="43.49698" lon="6.94167">
        <ele>181</ele>
        <time>2016-10-15T08:46:47Z</time>
      </trkpt>
      <trkpt lat="43.49711" lon="6.94164">
        <ele>181</ele>
        <time>2016-10-15T08:46:59Z</time>
      </trkpt>
      <trkpt lat="43.4972" lon="6.94164">
        <ele>183</ele>
        <time>2016-10-15T08:47:04Z</time>
      </trkpt>
      <trkpt lat="43.49746" lon="6.94164">
        <ele>184</ele>
        <time>2016-10-15T08:47:18Z</time>
      </trkpt>
      <trkpt lat="43.49759" lon="6.94165">
        <ele>186</ele>
        <time>2016-10-15T08:47:25Z</time>
      </trkpt>
      <trkpt lat="43.49779" lon="6.94163">
        <ele>187</ele>
        <time>2016-10-15T08:47:35Z</time>
      </trkpt>
      <trkpt lat="43.49792" lon="6.94159">
        <ele>187</ele>
        <time>2016-10-15T08:47:41Z</time>
      </trkpt>
      <trkpt lat="43.4981" lon="6.94148">
        <ele>187</ele>
        <time>2016-10-15T08:47:50Z</time>
      </trkpt>
      <trkpt lat="43.49819" lon="6.94145">
        <ele>189</ele>
        <time>2016-10-15T08:47:55Z</time>
      </trkpt>
      <trkpt lat="43.49832" lon="6.9414">
        <ele>189</ele>
        <time>2016-10-15T08:48:02Z</time>
      </trkpt>
      <trkpt lat="43.49835" lon="6.94141">
        <ele>189</ele>
        <time>2016-10-15T08:48:05Z</time>
      </trkpt>
      <trkpt lat="43.49835" lon="6.94142">
        <ele>190</ele>
        <time>2016-10-15T08:48:06Z</time>
      </trkpt>
      <trkpt lat="43.4983" lon="6.94147">
        <ele>190</ele>
        <time>2016-10-15T08:48:11Z</time>
      </trkpt>
      <trkpt lat="43.49772" lon="6.9422">
        <ele>198</ele>
        <time>2016-10-15T08:48:59Z</time>
      </trkpt>
      <trkpt lat="43.49768" lon="6.94221">
        <ele>199</ele>
        <time>2016-10-15T08:49:02Z</time>
      </trkpt>
      <trkpt lat="43.49752" lon="6.94206">
        <ele>199</ele>
        <time>2016-10-15T08:49:16Z</time>
      </trkpt>
      <trkpt lat="43.49743" lon="6.94208">
        <ele>198</ele>
        <time>2016-10-15T08:49:23Z</time>
      </trkpt>
      <trkpt lat="43.49734" lon="6.94215">
        <ele>198</ele>
        <time>2016-10-15T08:49:31Z</time>
      </trkpt>
      <trkpt lat="43.4973" lon="6.94211">
        <ele>198</ele>
        <time>2016-10-15T08:49:36Z</time>
      </trkpt>
      <trkpt lat="43.49729" lon="6.94213">
        <ele>198</ele>
        <time>2016-10-15T08:49:44Z</time>
      </trkpt>
      <trkpt lat="43.49729" lon="6.94211">
        <ele>198</ele>
        <time>2016-10-15T08:49:50Z</time>
      </trkpt>
      <trkpt lat="43.49725" lon="6.94209">
        <ele>198</ele>
        <time>2016-10-15T08:49:52Z</time>
      </trkpt>
      <trkpt lat="43.4972" lon="6.94208">
        <ele>196</ele>
        <time>2016-10-15T08:49:54Z</time>
      </trkpt>
      <trkpt lat="43.4971" lon="6.94213">
        <ele>195</ele>
        <time>2016-10-15T08:49:59Z</time>
      </trkpt>
      <trkpt lat="43.49701" lon="6.94213">
        <ele>193</ele>
        <time>2016-10-15T08:50:04Z</time>
      </trkpt>
      <trkpt lat="43.497" lon="6.94211">
        <ele>192</ele>
        <time>2016-10-15T08:50:06Z</time>
      </trkpt>
      <trkpt lat="43.49699" lon="6.94198">
        <ele>191</ele>
        <time>2016-10-15T08:50:14Z</time>
      </trkpt>
      <trkpt lat="43.49707" lon="6.94186">
        <ele>186</ele>
        <time>2016-10-15T08:50:22Z</time>
      </trkpt>
      <trkpt lat="43.49707" lon="6.94177">
        <ele>184</ele>
        <time>2016-10-15T08:50:26Z</time>
      </trkpt>
      <trkpt lat="43.49702" lon="6.9416">
        <ele>180</ele>
        <time>2016-10-15T08:50:38Z</time>
      </trkpt>
      <trkpt lat="43.49699" lon="6.9416">
        <ele>180</ele>
        <time>2016-10-15T08:51:02Z</time>
      </trkpt>
      <trkpt lat="43.49694" lon="6.94155">
        <ele>180</ele>
        <time>2016-10-15T08:51:15Z</time>
      </trkpt>
      <trkpt lat="43.49692" lon="6.94152">
        <ele>178</ele>
        <time>2016-10-15T08:51:16Z</time>
      </trkpt>
      <trkpt lat="43.49689" lon="6.94147">
        <ele>178</ele>
        <time>2016-10-15T08:51:18Z</time>
      </trkpt>
      <trkpt lat="43.49687" lon="6.94142">
        <ele>176</ele>
        <time>2016-10-15T08:51:20Z</time>
      </trkpt>
      <trkpt lat="43.49691" lon="6.94132">
        <ele>175</ele>
        <time>2016-10-15T08:51:24Z</time>
      </trkpt>
      <trkpt lat="43.49694" lon="6.94118">
        <ele>172</ele>
        <time>2016-10-15T08:51:31Z</time>
      </trkpt>
      <trkpt lat="43.49686" lon="6.94103">
        <ele>169</ele>
        <time>2016-10-15T08:51:36Z</time>
      </trkpt>
      <trkpt lat="43.49676" lon="6.94094">
        <ele>168</ele>
        <time>2016-10-15T08:51:44Z</time>
      </trkpt>
      <trkpt lat="43.49675" lon="6.94089">
        <ele>166</ele>
        <time>2016-10-15T08:51:49Z</time>
      </trkpt>
      <trkpt lat="43.49675" lon="6.94088">
        <ele>167</ele>
        <time>2016-10-15T08:51:54Z</time>
      </trkpt>
      <trkpt lat="43.49672" lon="6.94081">
        <ele>165</ele>
        <time>2016-10-15T08:52:00Z</time>
      </trkpt>
      <trkpt lat="43.49667" lon="6.94059">
        <ele>164</ele>
        <time>2016-10-15T08:52:07Z</time>
      </trkpt>
      <trkpt lat="43.49668" lon="6.94052">
        <ele>164</ele>
        <time>2016-10-15T08:52:09Z</time>
      </trkpt>
      <trkpt lat="43.49673" lon="6.94045">
        <ele>163</ele>
        <time>2016-10-15T08:52:13Z</time>
      </trkpt>
      <trkpt lat="43.49667" lon="6.9403">
        <ele>162</ele>
        <time>2016-10-15T08:52:17Z</time>
      </trkpt>
      <trkpt lat="43.49668" lon="6.94027">
        <ele>162</ele>
        <time>2016-10-15T08:52:18Z</time>
      </trkpt>
      <trkpt lat="43.49675" lon="6.94022">
        <ele>162</ele>
        <time>2016-10-15T08:52:21Z</time>
      </trkpt>
      <trkpt lat="43.49676" lon="6.94019">
        <ele>161</ele>
        <time>2016-10-15T08:52:22Z</time>
      </trkpt>
      <trkpt lat="43.49676" lon="6.94003">
        <ele>160</ele>
        <time>2016-10-15T08:52:26Z</time>
      </trkpt>
      <trkpt lat="43.49675" lon="6.93996">
        <ele>158</ele>
        <time>2016-10-15T08:52:28Z</time>
      </trkpt>
      <trkpt lat="43.49678" lon="6.93981">
        <ele>155</ele>
        <time>2016-10-15T08:52:31Z</time>
      </trkpt>
      <trkpt lat="43.49677" lon="6.93965">
        <ele>153</ele>
        <time>2016-10-15T08:52:34Z</time>
      </trkpt>
      <trkpt lat="43.49671" lon="6.93952">
        <ele>152</ele>
        <time>2016-10-15T08:52:39Z</time>
      </trkpt>
      <trkpt lat="43.49665" lon="6.93947">
        <ele>150</ele>
        <time>2016-10-15T08:52:42Z</time>
      </trkpt>
      <trkpt lat="43.49663" lon="6.93941">
        <ele>149</ele>
        <time>2016-10-15T08:52:45Z</time>
      </trkpt>
      <trkpt lat="43.49653" lon="6.9394">
        <ele>146</ele>
        <time>2016-10-15T08:52:49Z</time>
      </trkpt>
      <trkpt lat="43.49647" lon="6.93935">
        <ele>145</ele>
        <time>2016-10-15T08:52:51Z</time>
      </trkpt>
      <trkpt lat="43.49642" lon="6.93923">
        <ele>143</ele>
        <time>2016-10-15T08:52:54Z</time>
      </trkpt>
      <trkpt lat="43.49642" lon="6.93911">
        <ele>142</ele>
        <time>2016-10-15T08:52:56Z</time>
      </trkpt>
      <trkpt lat="43.49646" lon="6.939">
        <ele>140</ele>
        <time>2016-10-15T08:52:59Z</time>
      </trkpt>
      <trkpt lat="43.49649" lon="6.93894">
        <ele>140</ele>
        <time>2016-10-15T08:53:01Z</time>
      </trkpt>
      <trkpt lat="43.49654" lon="6.93887">
        <ele>137</ele>
        <time>2016-10-15T08:53:03Z</time>
      </trkpt>
      <trkpt lat="43.49662" lon="6.93874">
        <ele>135</ele>
        <time>2016-10-15T08:53:06Z</time>
      </trkpt>
      <trkpt lat="43.49667" lon="6.93862">
        <ele>134</ele>
        <time>2016-10-15T08:53:09Z</time>
      </trkpt>
      <trkpt lat="43.49671" lon="6.93841">
        <ele>131</ele>
        <time>2016-10-15T08:53:13Z</time>
      </trkpt>
      <trkpt lat="43.49681" lon="6.93816">
        <ele>128</ele>
        <time>2016-10-15T08:53:18Z</time>
      </trkpt>
      <trkpt lat="43.49699" lon="6.93788">
        <ele>123</ele>
        <time>2016-10-15T08:53:25Z</time>
      </trkpt>
      <trkpt lat="43.4971" lon="6.93771">
        <ele>122</ele>
        <time>2016-10-15T08:53:29Z</time>
      </trkpt>
      <trkpt lat="43.49717" lon="6.93763">
        <ele>120</ele>
        <time>2016-10-15T08:53:33Z</time>
      </trkpt>
      <trkpt lat="43.49719" lon="6.93754">
        <ele>117</ele>
        <time>2016-10-15T08:53:37Z</time>
      </trkpt>
      <trkpt lat="43.49722" lon="6.93755">
        <ele>116</ele>
        <time>2016-10-15T08:53:50Z</time>
      </trkpt>
      <trkpt lat="43.49727" lon="6.93754">
        <ele>116</ele>
        <time>2016-10-15T08:54:16Z</time>
      </trkpt>
      <trkpt lat="43.4974" lon="6.93752">
        <ele>111</ele>
        <time>2016-10-15T08:54:22Z</time>
      </trkpt>
      <trkpt lat="43.49746" lon="6.93753">
        <ele>111</ele>
        <time>2016-10-15T08:54:24Z</time>
      </trkpt>
      <trkpt lat="43.49754" lon="6.93756">
        <ele>110</ele>
        <time>2016-10-15T08:54:27Z</time>
      </trkpt>
      <trkpt lat="43.49763" lon="6.93759">
        <ele>105</ele>
        <time>2016-10-15T08:54:33Z</time>
      </trkpt>
      <trkpt lat="43.49774" lon="6.9376">
        <ele>102</ele>
        <time>2016-10-15T08:54:40Z</time>
      </trkpt>
      <trkpt lat="43.49776" lon="6.9376">
        <ele>100</ele>
        <time>2016-10-15T08:54:41Z</time>
      </trkpt>
      <trkpt lat="43.49778" lon="6.9376">
        <ele>99</ele>
        <time>2016-10-15T08:54:42Z</time>
      </trkpt>
      <trkpt lat="43.49779" lon="6.93756">
        <ele>99</ele>
        <time>2016-10-15T08:54:44Z</time>
      </trkpt>
      <trkpt lat="43.49779" lon="6.93745">
        <ele>96</ele>
        <time>2016-10-15T08:54:49Z</time>
      </trkpt>
      <trkpt lat="43.49781" lon="6.9374">
        <ele>95</ele>
        <time>2016-10-15T08:54:52Z</time>
      </trkpt>
      <trkpt lat="43.49791" lon="6.93749">
        <ele>93</ele>
        <time>2016-10-15T08:55:02Z</time>
      </trkpt>
      <trkpt lat="43.49794" lon="6.93751">
        <ele>91</ele>
        <time>2016-10-15T08:55:04Z</time>
      </trkpt>
      <trkpt lat="43.49797" lon="6.9377">
        <ele>91</ele>
        <time>2016-10-15T08:55:10Z</time>
      </trkpt>
      <trkpt lat="43.49801" lon="6.9378">
        <ele>91</ele>
        <time>2016-10-15T08:55:15Z</time>
      </trkpt>
      <trkpt lat="43.4981" lon="6.93785">
        <ele>88</ele>
        <time>2016-10-15T08:55:24Z</time>
      </trkpt>
      <trkpt lat="43.49813" lon="6.93784">
        <ele>87</ele>
        <time>2016-10-15T08:55:30Z</time>
      </trkpt>
      <trkpt lat="43.49817" lon="6.93781">
        <ele>85</ele>
        <time>2016-10-15T08:55:36Z</time>
      </trkpt>
      <trkpt lat="43.49817" lon="6.93779">
        <ele>83</ele>
        <time>2016-10-15T08:55:39Z</time>
      </trkpt>
      <trkpt lat="43.4982" lon="6.93767">
        <ele>81</ele>
        <time>2016-10-15T08:55:50Z</time>
      </trkpt>
      <trkpt lat="43.4982" lon="6.93761">
        <ele>80</ele>
        <time>2016-10-15T08:56:02Z</time>
      </trkpt>
      <trkpt lat="43.49823" lon="6.93757">
        <ele>78</ele>
        <time>2016-10-15T08:56:09Z</time>
      </trkpt>
      <trkpt lat="43.49825" lon="6.93747">
        <ele>76</ele>
        <time>2016-10-15T08:56:20Z</time>
      </trkpt>
      <trkpt lat="43.4983" lon="6.93739">
        <ele>76</ele>
        <time>2016-10-15T08:56:33Z</time>
      </trkpt>
      <trkpt lat="43.49831" lon="6.93736">
        <ele>75</ele>
        <time>2016-10-15T08:56:37Z</time>
      </trkpt>
      <trkpt lat="43.49834" lon="6.93733">
        <ele>73</ele>
        <time>2016-10-15T08:56:48Z</time>
      </trkpt>
      <trkpt lat="43.49838" lon="6.93726">
        <ele>72</ele>
        <time>2016-10-15T08:57:00Z</time>
      </trkpt>
      <trkpt lat="43.49839" lon="6.93716">
        <ele>70</ele>
        <time>2016-10-15T08:57:11Z</time>
      </trkpt>
      <trkpt lat="43.4984" lon="6.93714">
        <ele>68</ele>
        <time>2016-10-15T08:57:16Z</time>
      </trkpt>
      <trkpt lat="43.49841" lon="6.9371">
        <ele>68</ele>
        <time>2016-10-15T08:57:29Z</time>
      </trkpt>
      <trkpt lat="43.49841" lon="6.93705">
        <ele>66</ele>
        <time>2016-10-15T08:57:38Z</time>
      </trkpt>
      <trkpt lat="43.49843" lon="6.937">
        <ele>66</ele>
        <time>2016-10-15T08:57:47Z</time>
      </trkpt>
      <trkpt lat="43.49844" lon="6.93697">
        <ele>64</ele>
        <time>2016-10-15T08:57:58Z</time>
      </trkpt>
      <trkpt lat="43.49844" lon="6.93689">
        <ele>63</ele>
        <time>2016-10-15T08:58:16Z</time>
      </trkpt>
      <trkpt lat="43.49849" lon="6.93688">
        <ele>60</ele>
        <time>2016-10-15T08:58:37Z</time>
      </trkpt>
      <trkpt lat="43.49849" lon="6.93688">
        <ele>61</ele>
        <time>2016-10-15T08:58:38Z</time>
      </trkpt>
      <trkpt lat="43.49856" lon="6.93693">
        <ele>59</ele>
        <time>2016-10-15T08:58:48Z</time>
      </trkpt>
      <trkpt lat="43.49861" lon="6.93693">
        <ele>57</ele>
        <time>2016-10-15T08:58:53Z</time>
      </trkpt>
      <trkpt lat="43.49862" lon="6.93688">
        <ele>55</ele>
        <time>2016-10-15T08:58:58Z</time>
      </trkpt>
      <trkpt lat="43.49862" lon="6.93684">
        <ele>55</ele>
        <time>2016-10-15T08:59:01Z</time>
      </trkpt>
      <trkpt lat="43.49862" lon="6.93684">
        <ele>56</ele>
        <time>2016-10-15T08:59:02Z</time>
      </trkpt>
      <trkpt lat="43.49868" lon="6.93676">
        <ele>52</ele>
        <time>2016-10-15T08:59:20Z</time>
      </trkpt>
      <trkpt lat="43.49871" lon="6.93674">
        <ele>50</ele>
        <time>2016-10-15T08:59:24Z</time>
      </trkpt>
      <trkpt lat="43.49879" lon="6.93675">
        <ele>50</ele>
        <time>2016-10-15T08:59:34Z</time>
      </trkpt>
      <trkpt lat="43.49874" lon="6.93661">
        <ele>52</ele>
        <time>2016-10-15T09:07:10Z</time>
      </trkpt>
      <trkpt lat="43.4987" lon="6.93657">
        <ele>53</ele>
        <time>2016-10-15T09:07:14Z</time>
      </trkpt>
      <trkpt lat="43.49852" lon="6.93659">
        <ele>54</ele>
        <time>2016-10-15T09:07:25Z</time>
      </trkpt>
      <trkpt lat="43.49837" lon="6.93655">
        <ele>55</ele>
        <time>2016-10-15T09:07:34Z</time>
      </trkpt>
      <trkpt lat="43.49803" lon="6.93625">
        <ele>61</ele>
        <time>2016-10-15T09:08:02Z</time>
      </trkpt>
      <trkpt lat="43.498" lon="6.93624">
        <ele>62</ele>
        <time>2016-10-15T09:08:04Z</time>
      </trkpt>
      <trkpt lat="43.49786" lon="6.93627">
        <ele>63</ele>
        <time>2016-10-15T09:08:13Z</time>
      </trkpt>
      <trkpt lat="43.49779" lon="6.9362">
        <ele>64</ele>
        <time>2016-10-15T09:08:18Z</time>
      </trkpt>
      <trkpt lat="43.49778" lon="6.93618">
        <ele>63</ele>
        <time>2016-10-15T09:08:19Z</time>
      </trkpt>
      <trkpt lat="43.49772" lon="6.93609">
        <ele>65</ele>
        <time>2016-10-15T09:08:25Z</time>
      </trkpt>
      <trkpt lat="43.4976" lon="6.93594">
        <ele>65</ele>
        <time>2016-10-15T09:08:34Z</time>
      </trkpt>
      <trkpt lat="43.4975" lon="6.93579">
        <ele>65</ele>
        <time>2016-10-15T09:08:41Z</time>
      </trkpt>
      <trkpt lat="43.4974" lon="6.93568">
        <ele>65</ele>
        <time>2016-10-15T09:08:47Z</time>
      </trkpt>
      <trkpt lat="43.49732" lon="6.93564">
        <ele>65</ele>
        <time>2016-10-15T09:08:51Z</time>
      </trkpt>
      <trkpt lat="43.49714" lon="6.93562">
        <ele>66</ele>
        <time>2016-10-15T09:08:59Z</time>
      </trkpt>
      <trkpt lat="43.49701" lon="6.93564">
        <ele>66</ele>
        <time>2016-10-15T09:09:05Z</time>
      </trkpt>
      <trkpt lat="43.49689" lon="6.93572">
        <ele>66</ele>
        <time>2016-10-15T09:09:11Z</time>
      </trkpt>
      <trkpt lat="43.49676" lon="6.9359">
        <ele>66</ele>
        <time>2016-10-15T09:09:19Z</time>
      </trkpt>
      <trkpt lat="43.49655" lon="6.93629">
        <ele>66</ele>
        <time>2016-10-15T09:09:33Z</time>
      </trkpt>
      <trkpt lat="43.49645" lon="6.93644">
        <ele>66</ele>
        <time>2016-10-15T09:09:39Z</time>
      </trkpt>
      <trkpt lat="43.49623" lon="6.93666">
        <ele>67</ele>
        <time>2016-10-15T09:09:50Z</time>
      </trkpt>
      <trkpt lat="43.49616" lon="6.93669">
        <ele>67</ele>
        <time>2016-10-15T09:09:53Z</time>
      </trkpt>
      <trkpt lat="43.49611" lon="6.93665">
        <ele>67</ele>
        <time>2016-10-15T09:09:55Z</time>
      </trkpt>
      <trkpt lat="43.49611" lon="6.93656">
        <ele>67</ele>
        <time>2016-10-15T09:09:58Z</time>
      </trkpt>
      <trkpt lat="43.49618" lon="6.93643">
        <ele>68</ele>
        <time>2016-10-15T09:10:05Z</time>
      </trkpt>
      <trkpt lat="43.49627" lon="6.93615">
        <ele>71</ele>
        <time>2016-10-15T09:10:18Z</time>
      </trkpt>
      <trkpt lat="43.4963" lon="6.93603">
        <ele>71</ele>
        <time>2016-10-15T09:10:23Z</time>
      </trkpt>
      <trkpt lat="43.49643" lon="6.93557">
        <ele>75</ele>
        <time>2016-10-15T09:10:45Z</time>
      </trkpt>
      <trkpt lat="43.49669" lon="6.93495">
        <ele>79</ele>
        <time>2016-10-15T09:11:15Z</time>
      </trkpt>
      <trkpt lat="43.4967" lon="6.93482">
        <ele>81</ele>
        <time>2016-10-15T09:11:21Z</time>
      </trkpt>
      <trkpt lat="43.49668" lon="6.93469">
        <ele>81</ele>
        <time>2016-10-15T09:11:27Z</time>
      </trkpt>
      <trkpt lat="43.49661" lon="6.93441">
        <ele>83</ele>
        <time>2016-10-15T09:11:40Z</time>
      </trkpt>
      <trkpt lat="43.49656" lon="6.93429">
        <ele>85</ele>
        <time>2016-10-15T09:11:46Z</time>
      </trkpt>
      <trkpt lat="43.49646" lon="6.93411">
        <ele>86</ele>
        <time>2016-10-15T09:11:56Z</time>
      </trkpt>
      <trkpt lat="43.49636" lon="6.93398">
        <ele>88</ele>
        <time>2016-10-15T09:12:04Z</time>
      </trkpt>
      <trkpt lat="43.49623" lon="6.93384">
        <ele>89</ele>
        <time>2016-10-15T09:12:14Z</time>
      </trkpt>
      <trkpt lat="43.49605" lon="6.93373">
        <ele>91</ele>
        <time>2016-10-15T09:12:25Z</time>
      </trkpt>
      <trkpt lat="43.49592" lon="6.93369">
        <ele>93</ele>
        <time>2016-10-15T09:12:32Z</time>
      </trkpt>
      <trkpt lat="43.49577" lon="6.93363">
        <ele>93</ele>
        <time>2016-10-15T09:12:41Z</time>
      </trkpt>
      <trkpt lat="43.49571" lon="6.93357">
        <ele>94</ele>
        <time>2016-10-15T09:12:45Z</time>
      </trkpt>
      <trkpt lat="43.49569" lon="6.93349">
        <ele>94</ele>
        <time>2016-10-15T09:12:48Z</time>
      </trkpt>
      <trkpt lat="43.49574" lon="6.93339">
        <ele>95</ele>
        <time>2016-10-15T09:12:52Z</time>
      </trkpt>
      <trkpt lat="43.4958" lon="6.93332">
        <ele>95</ele>
        <time>2016-10-15T09:12:56Z</time>
      </trkpt>
      <trkpt lat="43.49614" lon="6.9331">
        <ele>96</ele>
        <time>2016-10-15T09:13:15Z</time>
      </trkpt>
      <trkpt lat="43.49619" lon="6.933">
        <ele>97</ele>
        <time>2016-10-15T09:13:19Z</time>
      </trkpt>
      <trkpt lat="43.49622" lon="6.93289">
        <ele>97</ele>
        <time>2016-10-15T09:13:23Z</time>
      </trkpt>
      <trkpt lat="43.49623" lon="6.93275">
        <ele>97</ele>
        <time>2016-10-15T09:13:28Z</time>
      </trkpt>
      <trkpt lat="43.49623" lon="6.93263">
        <ele>99</ele>
        <time>2016-10-15T09:13:33Z</time>
      </trkpt>
      <trkpt lat="43.49617" lon="6.93244">
        <ele>100</ele>
        <time>2016-10-15T09:13:41Z</time>
      </trkpt>
      <trkpt lat="43.49579" lon="6.93208">
        <ele>101</ele>
        <time>2016-10-15T09:14:03Z</time>
      </trkpt>
      <trkpt lat="43.49577" lon="6.93197">
        <ele>101</ele>
        <time>2016-10-15T09:14:10Z</time>
      </trkpt>
      <trkpt lat="43.49578" lon="6.93193">
        <ele>101</ele>
        <time>2016-10-15T09:14:13Z</time>
      </trkpt>
      <trkpt lat="43.49588" lon="6.93178">
        <ele>101</ele>
        <time>2016-10-15T09:14:22Z</time>
      </trkpt>
      <trkpt lat="43.496" lon="6.93168">
        <ele>102</ele>
        <time>2016-10-15T09:14:29Z</time>
      </trkpt>
      <trkpt lat="43.49611" lon="6.93156">
        <ele>102</ele>
        <time>2016-10-15T09:14:35Z</time>
      </trkpt>
      <trkpt lat="43.49626" lon="6.93129">
        <ele>105</ele>
        <time>2016-10-15T09:14:48Z</time>
      </trkpt>
      <trkpt lat="43.49631" lon="6.93112">
        <ele>106</ele>
        <time>2016-10-15T09:14:54Z</time>
      </trkpt>
      <trkpt lat="43.49633" lon="6.93097">
        <ele>106</ele>
        <time>2016-10-15T09:14:59Z</time>
      </trkpt>
      <trkpt lat="43.49636" lon="6.9308">
        <ele>107</ele>
        <time>2016-10-15T09:15:05Z</time>
      </trkpt>
      <trkpt lat="43.49637" lon="6.93063">
        <ele>109</ele>
        <time>2016-10-15T09:15:12Z</time>
      </trkpt>
      <trkpt lat="43.49634" lon="6.93055">
        <ele>109</ele>
        <time>2016-10-15T09:15:16Z</time>
      </trkpt>
      <trkpt lat="43.4963" lon="6.93047">
        <ele>110</ele>
        <time>2016-10-15T09:15:20Z</time>
      </trkpt>
      <trkpt lat="43.49598" lon="6.93029">
        <ele>112</ele>
        <time>2016-10-15T09:15:37Z</time>
      </trkpt>
      <trkpt lat="43.49592" lon="6.93021">
        <ele>112</ele>
        <time>2016-10-15T09:15:40Z</time>
      </trkpt>
      <trkpt lat="43.49588" lon="6.93008">
        <ele>112</ele>
        <time>2016-10-15T09:15:44Z</time>
      </trkpt>
      <trkpt lat="43.4959" lon="6.93001">
        <ele>112</ele>
        <time>2016-10-15T09:15:46Z</time>
      </trkpt>
      <trkpt lat="43.49595" lon="6.92991">
        <ele>114</ele>
        <time>2016-10-15T09:15:51Z</time>
      </trkpt>
      <trkpt lat="43.49595" lon="6.92985">
        <ele>114</ele>
        <time>2016-10-15T09:15:53Z</time>
      </trkpt>
      <trkpt lat="43.49574" lon="6.92936">
        <ele>116</ele>
        <time>2016-10-15T09:16:14Z</time>
      </trkpt>
      <trkpt lat="43.49567" lon="6.92909">
        <ele>118</ele>
        <time>2016-10-15T09:16:26Z</time>
      </trkpt>
      <trkpt lat="43.4956" lon="6.92899">
        <ele>120</ele>
        <time>2016-10-15T09:16:32Z</time>
      </trkpt>
      <trkpt lat="43.49544" lon="6.92884">
        <ele>121</ele>
        <time>2016-10-15T09:16:41Z</time>
      </trkpt>
      <trkpt lat="43.49542" lon="6.92878">
        <ele>122</ele>
        <time>2016-10-15T09:16:44Z</time>
      </trkpt>
      <trkpt lat="43.49531" lon="6.92863">
        <ele>123</ele>
        <time>2016-10-15T09:16:53Z</time>
      </trkpt>
      <trkpt lat="43.49522" lon="6.92853">
        <ele>124</ele>
        <time>2016-10-15T09:16:59Z</time>
      </trkpt>
      <trkpt lat="43.49515" lon="6.92847">
        <ele>124</ele>
        <time>2016-10-15T09:17:03Z</time>
      </trkpt>
      <trkpt lat="43.49506" lon="6.92836">
        <ele>125</ele>
        <time>2016-10-15T09:17:09Z</time>
      </trkpt>
      <trkpt lat="43.49503" lon="6.92823">
        <ele>126</ele>
        <time>2016-10-15T09:17:14Z</time>
      </trkpt>
      <trkpt lat="43.495" lon="6.92799">
        <ele>127</ele>
        <time>2016-10-15T09:17:24Z</time>
      </trkpt>
      <trkpt lat="43.49489" lon="6.92775">
        <ele>128</ele>
        <time>2016-10-15T09:17:39Z</time>
      </trkpt>
      <trkpt lat="43.49486" lon="6.92764">
        <ele>128</ele>
        <time>2016-10-15T09:17:45Z</time>
      </trkpt>
      <trkpt lat="43.49485" lon="6.92752">
        <ele>128</ele>
        <time>2016-10-15T09:17:52Z</time>
      </trkpt>
      <trkpt lat="43.49476" lon="6.92735">
        <ele>130</ele>
        <time>2016-10-15T09:18:02Z</time>
      </trkpt>
      <trkpt lat="43.49472" lon="6.92722">
        <ele>130</ele>
        <time>2016-10-15T09:18:08Z</time>
      </trkpt>
      <trkpt lat="43.49468" lon="6.92695">
        <ele>131</ele>
        <time>2016-10-15T09:18:20Z</time>
      </trkpt>
      <trkpt lat="43.4947" lon="6.92679">
        <ele>133</ele>
        <time>2016-10-15T09:18:27Z</time>
      </trkpt>
      <trkpt lat="43.49475" lon="6.92658">
        <ele>134</ele>
        <time>2016-10-15T09:18:36Z</time>
      </trkpt>
      <trkpt lat="43.49474" lon="6.92631">
        <ele>136</ele>
        <time>2016-10-15T09:18:47Z</time>
      </trkpt>
      <trkpt lat="43.4947" lon="6.92614">
        <ele>136</ele>
        <time>2016-10-15T09:18:54Z</time>
      </trkpt>
      <trkpt lat="43.49466" lon="6.92598">
        <ele>138</ele>
        <time>2016-10-15T09:19:01Z</time>
      </trkpt>
      <trkpt lat="43.49463" lon="6.92586">
        <ele>138</ele>
        <time>2016-10-15T09:19:06Z</time>
      </trkpt>
      <trkpt lat="43.49443" lon="6.92551">
        <ele>141</ele>
        <time>2016-10-15T09:19:23Z</time>
      </trkpt>
      <trkpt lat="43.49438" lon="6.92533">
        <ele>141</ele>
        <time>2016-10-15T09:19:30Z</time>
      </trkpt>
      <trkpt lat="43.49433" lon="6.92511">
        <ele>143</ele>
        <time>2016-10-15T09:19:39Z</time>
      </trkpt>
      <trkpt lat="43.49427" lon="6.92457">
        <ele>145</ele>
        <time>2016-10-15T09:19:59Z</time>
      </trkpt>
      <trkpt lat="43.49424" lon="6.92442">
        <ele>147</ele>
        <time>2016-10-15T09:20:05Z</time>
      </trkpt>
      <trkpt lat="43.49427" lon="6.92435">
        <ele>147</ele>
        <time>2016-10-15T09:20:08Z</time>
      </trkpt>
      <trkpt lat="43.49431" lon="6.92437">
        <ele>147</ele>
        <time>2016-10-15T09:20:11Z</time>
      </trkpt>
      <trkpt lat="43.49434" lon="6.92453">
        <ele>148</ele>
        <time>2016-10-15T09:20:18Z</time>
      </trkpt>
      <trkpt lat="43.49446" lon="6.92511">
        <ele>149</ele>
        <time>2016-10-15T09:20:37Z</time>
      </trkpt>
      <trkpt lat="43.49453" lon="6.92527">
        <ele>149</ele>
        <time>2016-10-15T09:20:42Z</time>
      </trkpt>
      <trkpt lat="43.49469" lon="6.92549">
        <ele>151</ele>
        <time>2016-10-15T09:20:51Z</time>
      </trkpt>
      <trkpt lat="43.49494" lon="6.92571">
        <ele>153</ele>
        <time>2016-10-15T09:21:05Z</time>
      </trkpt>
      <trkpt lat="43.49507" lon="6.92576">
        <ele>154</ele>
        <time>2016-10-15T09:21:12Z</time>
      </trkpt>
      <trkpt lat="43.49513" lon="6.92576">
        <ele>155</ele>
        <time>2016-10-15T09:21:15Z</time>
      </trkpt>
      <trkpt lat="43.49517" lon="6.92572">
        <ele>155</ele>
        <time>2016-10-15T09:21:18Z</time>
      </trkpt>
      <trkpt lat="43.49524" lon="6.92554">
        <ele>157</ele>
        <time>2016-10-15T09:21:26Z</time>
      </trkpt>
      <trkpt lat="43.49527" lon="6.92536">
        <ele>157</ele>
        <time>2016-10-15T09:21:33Z</time>
      </trkpt>
      <trkpt lat="43.49529" lon="6.92516">
        <ele>158</ele>
        <time>2016-10-15T09:21:41Z</time>
      </trkpt>
      <trkpt lat="43.49527" lon="6.92505">
        <ele>160</ele>
        <time>2016-10-15T09:21:46Z</time>
      </trkpt>
      <trkpt lat="43.49526" lon="6.92486">
        <ele>160</ele>
        <time>2016-10-15T09:21:54Z</time>
      </trkpt>
      <trkpt lat="43.49524" lon="6.92446">
        <ele>163</ele>
        <time>2016-10-15T09:22:10Z</time>
      </trkpt>
      <trkpt lat="43.49519" lon="6.92424">
        <ele>164</ele>
        <time>2016-10-15T09:22:20Z</time>
      </trkpt>
      <trkpt lat="43.49518" lon="6.92416">
        <ele>165</ele>
        <time>2016-10-15T09:22:23Z</time>
      </trkpt>
      <trkpt lat="43.49524" lon="6.92398">
        <ele>165</ele>
        <time>2016-10-15T09:22:31Z</time>
      </trkpt>
      <trkpt lat="43.49545" lon="6.92367">
        <ele>166</ele>
        <time>2016-10-15T09:22:46Z</time>
      </trkpt>
      <trkpt lat="43.49551" lon="6.92351">
        <ele>167</ele>
        <time>2016-10-15T09:22:53Z</time>
      </trkpt>
      <trkpt lat="43.49551" lon="6.92332">
        <ele>169</ele>
        <time>2016-10-15T09:23:01Z</time>
      </trkpt>
      <trkpt lat="43.49551" lon="6.92317">
        <ele>169</ele>
        <time>2016-10-15T09:23:06Z</time>
      </trkpt>
      <trkpt lat="43.49553" lon="6.92293">
        <ele>170</ele>
        <time>2016-10-15T09:23:15Z</time>
      </trkpt>
      <trkpt lat="43.49555" lon="6.92259">
        <ele>173</ele>
        <time>2016-10-15T09:23:27Z</time>
      </trkpt>
      <trkpt lat="43.49555" lon="6.92224">
        <ele>174</ele>
        <time>2016-10-15T09:23:40Z</time>
      </trkpt>
      <trkpt lat="43.4955" lon="6.92208">
        <ele>176</ele>
        <time>2016-10-15T09:23:47Z</time>
      </trkpt>
      <trkpt lat="43.4953" lon="6.9217">
        <ele>178</ele>
        <time>2016-10-15T09:24:06Z</time>
      </trkpt>
      <trkpt lat="43.49525" lon="6.92165">
        <ele>179</ele>
        <time>2016-10-15T09:24:10Z</time>
      </trkpt>
      <trkpt lat="43.49517" lon="6.92165">
        <ele>179</ele>
        <time>2016-10-15T09:24:15Z</time>
      </trkpt>
      <trkpt lat="43.49499" lon="6.92188">
        <ele>182</ele>
        <time>2016-10-15T09:24:28Z</time>
      </trkpt>
      <trkpt lat="43.49494" lon="6.92187">
        <ele>182</ele>
        <time>2016-10-15T09:24:30Z</time>
      </trkpt>
      <trkpt lat="43.4949" lon="6.92184">
        <ele>182</ele>
        <time>2016-10-15T09:24:33Z</time>
      </trkpt>
      <trkpt lat="43.49489" lon="6.9218">
        <ele>183</ele>
        <time>2016-10-15T09:24:35Z</time>
      </trkpt>
      <trkpt lat="43.4949" lon="6.92166">
        <ele>184</ele>
        <time>2016-10-15T09:24:41Z</time>
      </trkpt>
      <trkpt lat="43.49488" lon="6.92154">
        <ele>185</ele>
        <time>2016-10-15T09:24:46Z</time>
      </trkpt>
      <trkpt lat="43.49479" lon="6.92121">
        <ele>186</ele>
        <time>2016-10-15T09:25:01Z</time>
      </trkpt>
      <trkpt lat="43.49475" lon="6.92114">
        <ele>187</ele>
        <time>2016-10-15T09:25:05Z</time>
      </trkpt>
      <trkpt lat="43.49469" lon="6.92109">
        <ele>187</ele>
        <time>2016-10-15T09:25:09Z</time>
      </trkpt>
      <trkpt lat="43.4945" lon="6.92106">
        <ele>189</ele>
        <time>2016-10-15T09:25:19Z</time>
      </trkpt>
      <trkpt lat="43.49443" lon="6.921">
        <ele>189</ele>
        <time>2016-10-15T09:25:23Z</time>
      </trkpt>
      <trkpt lat="43.49431" lon="6.92084">
        <ele>191</ele>
        <time>2016-10-15T09:25:33Z</time>
      </trkpt>
      <trkpt lat="43.49426" lon="6.92074">
        <ele>191</ele>
        <time>2016-10-15T09:25:37Z</time>
      </trkpt>
      <trkpt lat="43.49421" lon="6.9206">
        <ele>192</ele>
        <time>2016-10-15T09:25:42Z</time>
      </trkpt>
      <trkpt lat="43.49418" lon="6.92045">
        <ele>192</ele>
        <time>2016-10-15T09:25:47Z</time>
      </trkpt>
      <trkpt lat="43.49422" lon="6.92033">
        <ele>192</ele>
        <time>2016-10-15T09:25:52Z</time>
      </trkpt>
      <trkpt lat="43.49425" lon="6.92027">
        <ele>193</ele>
        <time>2016-10-15T09:25:55Z</time>
      </trkpt>
      <trkpt lat="43.49437" lon="6.92012">
        <ele>194</ele>
        <time>2016-10-15T09:26:04Z</time>
      </trkpt>
      <trkpt lat="43.49469" lon="6.91987">
        <ele>197</ele>
        <time>2016-10-15T09:26:24Z</time>
      </trkpt>
      <trkpt lat="43.49474" lon="6.9198">
        <ele>198</ele>
        <time>2016-10-15T09:26:28Z</time>
      </trkpt>
      <trkpt lat="43.49486" lon="6.91955">
        <ele>199</ele>
        <time>2016-10-15T09:26:39Z</time>
      </trkpt>
      <trkpt lat="43.49492" lon="6.91948">
        <ele>200</ele>
        <time>2016-10-15T09:26:43Z</time>
      </trkpt>
      <trkpt lat="43.49497" lon="6.91946">
        <ele>200</ele>
        <time>2016-10-15T09:26:46Z</time>
      </trkpt>
      <trkpt lat="43.49501" lon="6.91946">
        <ele>200</ele>
        <time>2016-10-15T09:26:48Z</time>
      </trkpt>
      <trkpt lat="43.4951" lon="6.91953">
        <ele>202</ele>
        <time>2016-10-15T09:26:54Z</time>
      </trkpt>
      <trkpt lat="43.49518" lon="6.91957">
        <ele>202</ele>
        <time>2016-10-15T09:26:59Z</time>
      </trkpt>
      <trkpt lat="43.49524" lon="6.91956">
        <ele>202</ele>
        <time>2016-10-15T09:27:03Z</time>
      </trkpt>
      <trkpt lat="43.49529" lon="6.91952">
        <ele>202</ele>
        <time>2016-10-15T09:27:06Z</time>
      </trkpt>
      <trkpt lat="43.49537" lon="6.91938">
        <ele>204</ele>
        <time>2016-10-15T09:27:13Z</time>
      </trkpt>
      <trkpt lat="43.49551" lon="6.91904">
        <ele>206</ele>
        <time>2016-10-15T09:27:28Z</time>
      </trkpt>
      <trkpt lat="43.49563" lon="6.91876">
        <ele>208</ele>
        <time>2016-10-15T09:27:41Z</time>
      </trkpt>
      <trkpt lat="43.49567" lon="6.9187">
        <ele>208</ele>
        <time>2016-10-15T09:27:44Z</time>
      </trkpt>
      <trkpt lat="43.4957" lon="6.91868">
        <ele>209</ele>
        <time>2016-10-15T09:27:46Z</time>
      </trkpt>
      <trkpt lat="43.49574" lon="6.91869">
        <ele>209</ele>
        <time>2016-10-15T09:27:48Z</time>
      </trkpt>
      <trkpt lat="43.49591" lon="6.91886">
        <ele>210</ele>
        <time>2016-10-15T09:27:59Z</time>
      </trkpt>
      <trkpt lat="43.49612" lon="6.91897">
        <ele>213</ele>
        <time>2016-10-15T09:28:11Z</time>
      </trkpt>
      <trkpt lat="43.49618" lon="6.91903">
        <ele>213</ele>
        <time>2016-10-15T09:28:15Z</time>
      </trkpt>
      <trkpt lat="43.49659" lon="6.91967">
        <ele>218</ele>
        <time>2016-10-15T09:28:48Z</time>
      </trkpt>
      <trkpt lat="43.4966" lon="6.91968">
        <ele>217</ele>
        <time>2016-10-15T09:28:49Z</time>
      </trkpt>
      <trkpt lat="43.49674" lon="6.91988">
        <ele>220</ele>
        <time>2016-10-15T09:29:00Z</time>
      </trkpt>
      <trkpt lat="43.49688" lon="6.9201">
        <ele>221</ele>
        <time>2016-10-15T09:29:11Z</time>
      </trkpt>
      <trkpt lat="43.49705" lon="6.92032">
        <ele>223</ele>
        <time>2016-10-15T09:29:23Z</time>
      </trkpt>
      <trkpt lat="43.49715" lon="6.92058">
        <ele>224</ele>
        <time>2016-10-15T09:29:35Z</time>
      </trkpt>
      <trkpt lat="43.4972" lon="6.92105">
        <ele>227</ele>
        <time>2016-10-15T09:29:53Z</time>
      </trkpt>
      <trkpt lat="43.49727" lon="6.9215">
        <ele>229</ele>
        <time>2016-10-15T09:30:11Z</time>
      </trkpt>
      <trkpt lat="43.49735" lon="6.92172">
        <ele>231</ele>
        <time>2016-10-15T09:30:21Z</time>
      </trkpt>
      <trkpt lat="43.49747" lon="6.92195">
        <ele>232</ele>
        <time>2016-10-15T09:30:32Z</time>
      </trkpt>
      <trkpt lat="43.49764" lon="6.92214">
        <ele>234</ele>
        <time>2016-10-15T09:30:44Z</time>
      </trkpt>
      <trkpt lat="43.49784" lon="6.92226">
        <ele>235</ele>
        <time>2016-10-15T09:30:56Z</time>
      </trkpt>
      <trkpt lat="43.49799" lon="6.92223">
        <ele>236</ele>
        <time>2016-10-15T09:31:04Z</time>
      </trkpt>
      <trkpt lat="43.49808" lon="6.92218">
        <ele>237</ele>
        <time>2016-10-15T09:31:10Z</time>
      </trkpt>
      <trkpt lat="43.49817" lon="6.92217">
        <ele>238</ele>
        <time>2016-10-15T09:31:15Z</time>
      </trkpt>
      <trkpt lat="43.49828" lon="6.92219">
        <ele>239</ele>
        <time>2016-10-15T09:31:21Z</time>
      </trkpt>
      <trkpt lat="43.49829" lon="6.92223">
        <ele>239</ele>
        <time>2016-10-15T09:31:25Z</time>
      </trkpt>
      <trkpt lat="43.49825" lon="6.92226">
        <ele>239</ele>
        <time>2016-10-15T09:31:30Z</time>
      </trkpt>
      <trkpt lat="43.49826" lon="6.92227">
        <ele>239</ele>
        <time>2016-10-15T09:31:54Z</time>
      </trkpt>
      <trkpt lat="43.49827" lon="6.92222">
        <ele>239</ele>
        <time>2016-10-15T09:31:59Z</time>
      </trkpt>
      <trkpt lat="43.4983" lon="6.92222">
        <ele>239</ele>
        <time>2016-10-15T09:32:01Z</time>
      </trkpt>
      <trkpt lat="43.49846" lon="6.92258">
        <ele>240</ele>
        <time>2016-10-15T09:32:14Z</time>
      </trkpt>
      <trkpt lat="43.49863" lon="6.92315">
        <ele>238</ele>
        <time>2016-10-15T09:32:27Z</time>
      </trkpt>
      <trkpt lat="43.49867" lon="6.92354">
        <ele>238</ele>
        <time>2016-10-15T09:32:35Z</time>
      </trkpt>
      <trkpt lat="43.49869" lon="6.92363">
        <ele>240</ele>
        <time>2016-10-15T09:32:37Z</time>
      </trkpt>
      <trkpt lat="43.49872" lon="6.92378">
        <ele>240</ele>
        <time>2016-10-15T09:32:40Z</time>
      </trkpt>
      <trkpt lat="43.49883" lon="6.92409">
        <ele>240</ele>
        <time>2016-10-15T09:32:46Z</time>
      </trkpt>
      <trkpt lat="43.49887" lon="6.92425">
        <ele>240</ele>
        <time>2016-10-15T09:32:50Z</time>
      </trkpt>
      <trkpt lat="43.49892" lon="6.92462">
        <ele>237</ele>
        <time>2016-10-15T09:32:56Z</time>
      </trkpt>
      <trkpt lat="43.49893" lon="6.9248">
        <ele>236</ele>
        <time>2016-10-15T09:32:59Z</time>
      </trkpt>
      <trkpt lat="43.49895" lon="6.92486">
        <ele>234</ele>
        <time>2016-10-15T09:33:00Z</time>
      </trkpt>
      <trkpt lat="43.49897" lon="6.92498">
        <ele>233</ele>
        <time>2016-10-15T09:33:02Z</time>
      </trkpt>
      <trkpt lat="43.49903" lon="6.92517">
        <ele>233</ele>
        <time>2016-10-15T09:33:05Z</time>
      </trkpt>
      <trkpt lat="43.49908" lon="6.92552">
        <ele>229</ele>
        <time>2016-10-15T09:33:10Z</time>
      </trkpt>
      <trkpt lat="43.49916" lon="6.92578">
        <ele>229</ele>
        <time>2016-10-15T09:33:14Z</time>
      </trkpt>
      <trkpt lat="43.49924" lon="6.92611">
        <ele>226</ele>
        <time>2016-10-15T09:33:19Z</time>
      </trkpt>
      <trkpt lat="43.49928" lon="6.92633">
        <ele>226</ele>
        <time>2016-10-15T09:33:31Z</time>
      </trkpt>
      <trkpt lat="43.49934" lon="6.92643">
        <ele>226</ele>
        <time>2016-10-15T09:33:44Z</time>
      </trkpt>
      <trkpt lat="43.49936" lon="6.92654">
        <ele>226</ele>
        <time>2016-10-15T09:33:48Z</time>
      </trkpt>
      <trkpt lat="43.4994" lon="6.92666">
        <ele>225</ele>
        <time>2016-10-15T09:33:51Z</time>
      </trkpt>
      <trkpt lat="43.49951" lon="6.92692">
        <ele>222</ele>
        <time>2016-10-15T09:33:58Z</time>
      </trkpt>
      <trkpt lat="43.4998" lon="6.92722">
        <ele>224</ele>
        <time>2016-10-15T09:34:11Z</time>
      </trkpt>
      <trkpt lat="43.49991" lon="6.9274">
        <ele>224</ele>
        <time>2016-10-15T09:34:17Z</time>
      </trkpt>
      <trkpt lat="43.49993" lon="6.92748">
        <ele>221</ele>
        <time>2016-10-15T09:34:19Z</time>
      </trkpt>
      <trkpt lat="43.5" lon="6.92772">
        <ele>219</ele>
        <time>2016-10-15T09:34:24Z</time>
      </trkpt>
      <trkpt lat="43.50005" lon="6.92795">
        <ele>215</ele>
        <time>2016-10-15T09:34:28Z</time>
      </trkpt>
      <trkpt lat="43.50012" lon="6.92819">
        <ele>213</ele>
        <time>2016-10-15T09:34:35Z</time>
      </trkpt>
      <trkpt lat="43.50014" lon="6.92835">
        <ele>210</ele>
        <time>2016-10-15T09:34:42Z</time>
      </trkpt>
      <trkpt lat="43.50017" lon="6.92844">
        <ele>210</ele>
        <time>2016-10-15T09:34:44Z</time>
      </trkpt>
      <trkpt lat="43.50016" lon="6.92863">
        <ele>207</ele>
        <time>2016-10-15T09:34:48Z</time>
      </trkpt>
      <trkpt lat="43.50019" lon="6.92903">
        <ele>202</ele>
        <time>2016-10-15T09:34:58Z</time>
      </trkpt>
      <trkpt lat="43.50016" lon="6.92923">
        <ele>200</ele>
        <time>2016-10-15T09:35:02Z</time>
      </trkpt>
      <trkpt lat="43.50015" lon="6.92957">
        <ele>197</ele>
        <time>2016-10-15T09:35:07Z</time>
      </trkpt>
      <trkpt lat="43.50018" lon="6.92996">
        <ele>198</ele>
        <time>2016-10-15T09:35:17Z</time>
      </trkpt>
      <trkpt lat="43.50025" lon="6.93039">
        <ele>199</ele>
        <time>2016-10-15T09:35:31Z</time>
      </trkpt>
      <trkpt lat="43.50029" lon="6.9305">
        <ele>199</ele>
        <time>2016-10-15T09:35:34Z</time>
      </trkpt>
      <trkpt lat="43.50033" lon="6.93078">
        <ele>198</ele>
        <time>2016-10-15T09:35:39Z</time>
      </trkpt>
      <trkpt lat="43.50048" lon="6.93113">
        <ele>199</ele>
        <time>2016-10-15T09:35:49Z</time>
      </trkpt>
      <trkpt lat="43.50052" lon="6.93128">
        <ele>199</ele>
        <time>2016-10-15T09:35:52Z</time>
      </trkpt>
      <trkpt lat="43.50062" lon="6.93151">
        <ele>199</ele>
        <time>2016-10-15T09:35:58Z</time>
      </trkpt>
      <trkpt lat="43.50068" lon="6.9316">
        <ele>198</ele>
        <time>2016-10-15T09:36:00Z</time>
      </trkpt>
      <trkpt lat="43.50078" lon="6.93164">
        <ele>198</ele>
        <time>2016-10-15T09:36:02Z</time>
      </trkpt>
      <trkpt lat="43.50081" lon="6.93164">
        <ele>198</ele>
        <time>2016-10-15T09:36:03Z</time>
      </trkpt>
      <trkpt lat="43.50087" lon="6.9316">
        <ele>199</ele>
        <time>2016-10-15T09:36:10Z</time>
      </trkpt>
      <trkpt lat="43.50087" lon="6.9316">
        <ele>200</ele>
        <time>2016-10-15T09:36:11Z</time>
      </trkpt>
      <trkpt lat="43.50095" lon="6.93161">
        <ele>202</ele>
        <time>2016-10-15T09:36:19Z</time>
      </trkpt>
      <trkpt lat="43.50104" lon="6.93161">
        <ele>203</ele>
        <time>2016-10-15T09:36:25Z</time>
      </trkpt>
      <trkpt lat="43.5011" lon="6.93165">
        <ele>203</ele>
        <time>2016-10-15T09:36:29Z</time>
      </trkpt>
      <trkpt lat="43.50126" lon="6.93167">
        <ele>205</ele>
        <time>2016-10-15T09:36:44Z</time>
      </trkpt>
      <trkpt lat="43.50127" lon="6.93168">
        <ele>205</ele>
        <time>2016-10-15T09:36:56Z</time>
      </trkpt>
      <trkpt lat="43.50129" lon="6.93167">
        <ele>205</ele>
        <time>2016-10-15T09:37:18Z</time>
      </trkpt>
      <trkpt lat="43.50128" lon="6.93166">
        <ele>206</ele>
        <time>2016-10-15T09:37:34Z</time>
      </trkpt>
      <trkpt lat="43.50131" lon="6.93168">
        <ele>206</ele>
        <time>2016-10-15T09:37:41Z</time>
      </trkpt>
      <trkpt lat="43.50132" lon="6.93169">
        <ele>204</ele>
        <time>2016-10-15T09:37:42Z</time>
      </trkpt>
      <trkpt lat="43.50136" lon="6.93168">
        <ele>204</ele>
        <time>2016-10-15T09:37:44Z</time>
      </trkpt>
      <trkpt lat="43.50137" lon="6.9317">
        <ele>203</ele>
        <time>2016-10-15T09:37:45Z</time>
      </trkpt>
      <trkpt lat="43.50138" lon="6.93182">
        <ele>201</ele>
        <time>2016-10-15T09:37:48Z</time>
      </trkpt>
      <trkpt lat="43.50142" lon="6.9319">
        <ele>199</ele>
        <time>2016-10-15T09:37:51Z</time>
      </trkpt>
      <trkpt lat="43.50148" lon="6.93191">
        <ele>197</ele>
        <time>2016-10-15T09:37:54Z</time>
      </trkpt>
      <trkpt lat="43.50151" lon="6.93195">
        <ele>195</ele>
        <time>2016-10-15T09:37:56Z</time>
      </trkpt>
      <trkpt lat="43.50151" lon="6.93199">
        <ele>196</ele>
        <time>2016-10-15T09:37:57Z</time>
      </trkpt>
      <trkpt lat="43.50151" lon="6.93208">
        <ele>194</ele>
        <time>2016-10-15T09:37:59Z</time>
      </trkpt>
      <trkpt lat="43.50153" lon="6.93211">
        <ele>193</ele>
        <time>2016-10-15T09:38:00Z</time>
      </trkpt>
      <trkpt lat="43.50158" lon="6.93217">
        <ele>192</ele>
        <time>2016-10-15T09:38:02Z</time>
      </trkpt>
      <trkpt lat="43.50162" lon="6.9323">
        <ele>190</ele>
        <time>2016-10-15T09:38:05Z</time>
      </trkpt>
      <trkpt lat="43.5017" lon="6.93243">
        <ele>189</ele>
        <time>2016-10-15T09:38:08Z</time>
      </trkpt>
      <trkpt lat="43.5018" lon="6.93255">
        <ele>186</ele>
        <time>2016-10-15T09:38:12Z</time>
      </trkpt>
      <trkpt lat="43.50184" lon="6.93269">
        <ele>184</ele>
        <time>2016-10-15T09:38:17Z</time>
      </trkpt>
      <trkpt lat="43.50186" lon="6.93271">
        <ele>183</ele>
        <time>2016-10-15T09:38:18Z</time>
      </trkpt>
      <trkpt lat="43.5019" lon="6.9327">
        <ele>182</ele>
        <time>2016-10-15T09:38:20Z</time>
      </trkpt>
      <trkpt lat="43.50192" lon="6.93271">
        <ele>182</ele>
        <time>2016-10-15T09:38:21Z</time>
      </trkpt>
      <trkpt lat="43.50199" lon="6.93292">
        <ele>179</ele>
        <time>2016-10-15T09:48:02Z</time>
      </trkpt>
      <trkpt lat="43.50201" lon="6.93293">
        <ele>178</ele>
        <time>2016-10-15T09:48:03Z</time>
      </trkpt>
      <trkpt lat="43.50208" lon="6.93291">
        <ele>177</ele>
        <time>2016-10-15T09:48:07Z</time>
      </trkpt>
      <trkpt lat="43.50214" lon="6.93299">
        <ele>175</ele>
        <time>2016-10-15T09:48:11Z</time>
      </trkpt>
      <trkpt lat="43.50219" lon="6.93302">
        <ele>173</ele>
        <time>2016-10-15T09:48:15Z</time>
      </trkpt>
      <trkpt lat="43.50221" lon="6.93305">
        <ele>172</ele>
        <time>2016-10-15T09:48:17Z</time>
      </trkpt>
      <trkpt lat="43.50221" lon="6.93313">
        <ele>171</ele>
        <time>2016-10-15T09:48:23Z</time>
      </trkpt>
      <trkpt lat="43.50233" lon="6.93309">
        <ele>169</ele>
        <time>2016-10-15T09:48:32Z</time>
      </trkpt>
      <trkpt lat="43.50233" lon="6.93316">
        <ele>168</ele>
        <time>2016-10-15T09:48:35Z</time>
      </trkpt>
      <trkpt lat="43.50228" lon="6.93331">
        <ele>165</ele>
        <time>2016-10-15T09:48:42Z</time>
      </trkpt>
      <trkpt lat="43.50229" lon="6.93334">
        <ele>164</ele>
        <time>2016-10-15T09:48:44Z</time>
      </trkpt>
      <trkpt lat="43.50235" lon="6.93336">
        <ele>162</ele>
        <time>2016-10-15T09:48:47Z</time>
      </trkpt>
      <trkpt lat="43.50244" lon="6.93339">
        <ele>161</ele>
        <time>2016-10-15T09:48:52Z</time>
      </trkpt>
      <trkpt lat="43.50252" lon="6.93333">
        <ele>158</ele>
        <time>2016-10-15T09:48:57Z</time>
      </trkpt>
      <trkpt lat="43.50256" lon="6.93334">
        <ele>157</ele>
        <time>2016-10-15T09:48:59Z</time>
      </trkpt>
      <trkpt lat="43.50256" lon="6.9334">
        <ele>156</ele>
        <time>2016-10-15T09:49:01Z</time>
      </trkpt>
      <trkpt lat="43.50253" lon="6.93357">
        <ele>154</ele>
        <time>2016-10-15T09:49:07Z</time>
      </trkpt>
      <trkpt lat="43.50254" lon="6.9336">
        <ele>153</ele>
        <time>2016-10-15T09:49:09Z</time>
      </trkpt>
      <trkpt lat="43.5027" lon="6.93344">
        <ele>151</ele>
        <time>2016-10-15T09:49:17Z</time>
      </trkpt>
      <trkpt lat="43.50277" lon="6.93342">
        <ele>148</ele>
        <time>2016-10-15T09:49:21Z</time>
      </trkpt>
      <trkpt lat="43.5028" lon="6.93348">
        <ele>146</ele>
        <time>2016-10-15T09:49:25Z</time>
      </trkpt>
      <trkpt lat="43.50286" lon="6.93341">
        <ele>144</ele>
        <time>2016-10-15T09:49:30Z</time>
      </trkpt>
      <trkpt lat="43.50288" lon="6.9334">
        <ele>143</ele>
        <time>2016-10-15T09:49:32Z</time>
      </trkpt>
      <trkpt lat="43.50294" lon="6.93356">
        <ele>140</ele>
        <time>2016-10-15T09:49:39Z</time>
      </trkpt>
      <trkpt lat="43.50302" lon="6.93364">
        <ele>137</ele>
        <time>2016-10-15T09:49:44Z</time>
      </trkpt>
      <trkpt lat="43.50305" lon="6.9337">
        <ele>135</ele>
        <time>2016-10-15T09:49:46Z</time>
      </trkpt>
      <trkpt lat="43.50306" lon="6.93372">
        <ele>136</ele>
        <time>2016-10-15T09:49:47Z</time>
      </trkpt>
      <trkpt lat="43.5031" lon="6.93377">
        <ele>133</ele>
        <time>2016-10-15T09:49:49Z</time>
      </trkpt>
      <trkpt lat="43.50313" lon="6.93381">
        <ele>133</ele>
        <time>2016-10-15T09:49:51Z</time>
      </trkpt>
      <trkpt lat="43.50314" lon="6.93382">
        <ele>131</ele>
        <time>2016-10-15T09:49:52Z</time>
      </trkpt>
      <trkpt lat="43.50319" lon="6.93391">
        <ele>128</ele>
        <time>2016-10-15T09:49:56Z</time>
      </trkpt>
      <trkpt lat="43.50326" lon="6.934">
        <ele>127</ele>
        <time>2016-10-15T09:49:59Z</time>
      </trkpt>
      <trkpt lat="43.5033" lon="6.93404">
        <ele>125</ele>
        <time>2016-10-15T09:50:01Z</time>
      </trkpt>
      <trkpt lat="43.50342" lon="6.93423">
        <ele>121</ele>
        <time>2016-10-15T09:50:08Z</time>
      </trkpt>
      <trkpt lat="43.50348" lon="6.93436">
        <ele>119</ele>
        <time>2016-10-15T09:50:12Z</time>
      </trkpt>
      <trkpt lat="43.50357" lon="6.93445">
        <ele>117</ele>
        <time>2016-10-15T09:50:15Z</time>
      </trkpt>
      <trkpt lat="43.50369" lon="6.93453">
        <ele>114</ele>
        <time>2016-10-15T09:50:19Z</time>
      </trkpt>
      <trkpt lat="43.50373" lon="6.93465">
        <ele>113</ele>
        <time>2016-10-15T09:50:22Z</time>
      </trkpt>
      <trkpt lat="43.50382" lon="6.93481">
        <ele>111</ele>
        <time>2016-10-15T09:50:26Z</time>
      </trkpt>
      <trkpt lat="43.50385" lon="6.93492">
        <ele>111</ele>
        <time>2016-10-15T09:50:46Z</time>
      </trkpt>
      <trkpt lat="43.5041" lon="6.93506">
        <ele>109</ele>
        <time>2016-10-15T09:50:54Z</time>
      </trkpt>
      <trkpt lat="43.50434" lon="6.93521">
        <ele>104</ele>
        <time>2016-10-15T09:51:00Z</time>
      </trkpt>
      <trkpt lat="43.5046" lon="6.93528">
        <ele>103</ele>
        <time>2016-10-15T09:51:05Z</time>
      </trkpt>
      <trkpt lat="43.50465" lon="6.93531">
        <ele>103</ele>
        <time>2016-10-15T09:51:06Z</time>
      </trkpt>
      <trkpt lat="43.50509" lon="6.93573">
        <ele>99</ele>
        <time>2016-10-15T09:51:15Z</time>
      </trkpt>
      <trkpt lat="43.50519" lon="6.9358">
        <ele>98</ele>
        <time>2016-10-15T09:51:17Z</time>
      </trkpt>
      <trkpt lat="43.50544" lon="6.93586">
        <ele>94</ele>
        <time>2016-10-15T09:51:21Z</time>
      </trkpt>
      <trkpt lat="43.5057" lon="6.93589">
        <ele>91</ele>
        <time>2016-10-15T09:51:25Z</time>
      </trkpt>
      <trkpt lat="43.50596" lon="6.93599">
        <ele>88</ele>
        <time>2016-10-15T09:51:30Z</time>
      </trkpt>
      <trkpt lat="43.50599" lon="6.93602">
        <ele>87</ele>
        <time>2016-10-15T09:51:31Z</time>
      </trkpt>
      <trkpt lat="43.50606" lon="6.93611">
        <ele>87</ele>
        <time>2016-10-15T09:51:34Z</time>
      </trkpt>
      <trkpt lat="43.50614" lon="6.93618">
        <ele>83</ele>
        <time>2016-10-15T09:51:36Z</time>
      </trkpt>
      <trkpt lat="43.50631" lon="6.93636">
        <ele>78</ele>
        <time>2016-10-15T09:51:40Z</time>
      </trkpt>
      <trkpt lat="43.50661" lon="6.9366">
        <ele>73</ele>
        <time>2016-10-15T09:51:47Z</time>
      </trkpt>
      <trkpt lat="43.50669" lon="6.93681">
        <ele>71</ele>
        <time>2016-10-15T09:51:52Z</time>
      </trkpt>
      <trkpt lat="43.50672" lon="6.93688">
        <ele>69</ele>
        <time>2016-10-15T09:51:54Z</time>
      </trkpt>
      <trkpt lat="43.50672" lon="6.93691">
        <ele>68</ele>
        <time>2016-10-15T09:51:55Z</time>
      </trkpt>
      <trkpt lat="43.50663" lon="6.93695">
        <ele>66</ele>
        <time>2016-10-15T09:51:59Z</time>
      </trkpt>
      <trkpt lat="43.50654" lon="6.93691">
        <ele>65</ele>
        <time>2016-10-15T09:52:05Z</time>
      </trkpt>
      <trkpt lat="43.50652" lon="6.93693">
        <ele>65</ele>
        <time>2016-10-15T09:52:06Z</time>
      </trkpt>
      <trkpt lat="43.50653" lon="6.93696">
        <ele>64</ele>
        <time>2016-10-15T09:52:07Z</time>
      </trkpt>
      <trkpt lat="43.50676" lon="6.93729">
        <ele>60</ele>
        <time>2016-10-15T09:52:18Z</time>
      </trkpt>
      <trkpt lat="43.50708" lon="6.93763">
        <ele>54</ele>
        <time>2016-10-15T09:52:25Z</time>
      </trkpt>
      <trkpt lat="43.50715" lon="6.93766">
        <ele>53</ele>
        <time>2016-10-15T09:52:27Z</time>
      </trkpt>
      <trkpt lat="43.50727" lon="6.93762">
        <ele>52</ele>
        <time>2016-10-15T09:52:31Z</time>
      </trkpt>
      <trkpt lat="43.50737" lon="6.93752">
        <ele>47</ele>
        <time>2016-10-15T09:52:36Z</time>
      </trkpt>
      <trkpt lat="43.50739" lon="6.93746">
        <ele>46</ele>
        <time>2016-10-15T09:52:39Z</time>
      </trkpt>
      <trkpt lat="43.50738" lon="6.93742">
        <ele>44</ele>
        <time>2016-10-15T09:52:42Z</time>
      </trkpt>
      <trkpt lat="43.50739" lon="6.93741">
        <ele>45</ele>
        <time>2016-10-15T09:52:43Z</time>
      </trkpt>
      <trkpt lat="43.5074" lon="6.93738">
        <ele>43</ele>
        <time>2016-10-15T09:52:45Z</time>
      </trkpt>
      <trkpt lat="43.5075" lon="6.93748">
        <ele>40</ele>
        <time>2016-10-15T09:52:52Z</time>
      </trkpt>
      <trkpt lat="43.50761" lon="6.93759">
        <ele>34</ele>
        <time>2016-10-15T09:53:02Z</time>
      </trkpt>
      <trkpt lat="43.50768" lon="6.93764">
        <ele>31</ele>
        <time>2016-10-15T09:53:07Z</time>
      </trkpt>
      <trkpt lat="43.50769" lon="6.93763">
        <ele>32</ele>
        <time>2016-10-15T09:53:08Z</time>
      </trkpt>
      <trkpt lat="43.50773" lon="6.93753">
        <ele>28</ele>
        <time>2016-10-15T09:53:28Z</time>
      </trkpt>
      <trkpt lat="43.50772" lon="6.93744">
        <ele>26</ele>
        <time>2016-10-15T09:53:37Z</time>
      </trkpt>
      <trkpt lat="43.50773" lon="6.93742">
        <ele>24</ele>
        <time>2016-10-15T09:53:38Z</time>
      </trkpt>
      <trkpt lat="43.50776" lon="6.93737">
        <ele>22</ele>
        <time>2016-10-15T09:53:41Z</time>
      </trkpt>
      <trkpt lat="43.50776" lon="6.93727">
        <ele>19</ele>
        <time>2016-10-15T09:53:47Z</time>
      </trkpt>
      <trkpt lat="43.50778" lon="6.93722">
        <ele>16</ele>
        <time>2016-10-15T09:53:50Z</time>
      </trkpt>
      <trkpt lat="43.50778" lon="6.93708">
        <ele>13</ele>
        <time>2016-10-15T09:53:56Z</time>
      </trkpt>
      <trkpt lat="43.5078" lon="6.93705">
        <ele>12</ele>
        <time>2016-10-15T09:53:58Z</time>
      </trkpt>
      <trkpt lat="43.50781" lon="6.93706">
        <ele>11</ele>
        <time>2016-10-15T09:53:59Z</time>
      </trkpt>
      <trkpt lat="43.50782" lon="6.93718">
        <ele>11</ele>
        <time>2016-10-15T09:54:04Z</time>
      </trkpt>
      <trkpt lat="43.50829" lon="6.93815">
        <ele>11</ele>
        <time>2016-10-15T09:54:40Z</time>
      </trkpt>
      <trkpt lat="43.50845" lon="6.93798">
        <ele>11</ele>
        <time>2016-10-15T09:54:41Z</time>
      </trkpt>
      <trkpt lat="43.50842" lon="6.93789">
        <ele>10</ele>
        <time>2016-10-15T09:54:42Z</time>
      </trkpt>
      <trkpt lat="43.50843" lon="6.93794">
        <ele>10</ele>
        <time>2016-10-15T09:54:46Z</time>
      </trkpt>
      <trkpt lat="43.5084" lon="6.93792">
        <ele>10</ele>
        <time>2016-10-15T09:54:47Z</time>
      </trkpt>
      <trkpt lat="43.50846" lon="6.93801">
        <ele>10</ele>
        <time>2016-10-15T09:54:52Z</time>
      </trkpt>
      <trkpt lat="43.50851" lon="6.93817">
        <ele>10</ele>
        <time>2016-10-15T09:55:00Z</time>
      </trkpt>
      <trkpt lat="43.50858" lon="6.93818">
        <ele>10</ele>
        <time>2016-10-15T09:55:09Z</time>
      </trkpt>
      <trkpt lat="43.50862" lon="6.93815">
        <ele>10</ele>
        <time>2016-10-15T09:55:19Z</time>
      </trkpt>
      <trkpt lat="43.50865" lon="6.93816">
        <ele>9</ele>
        <time>2016-10-15T09:55:20Z</time>
      </trkpt>
      <trkpt lat="43.50868" lon="6.93818">
        <ele>8</ele>
        <time>2016-10-15T09:55:21Z</time>
      </trkpt>
      <trkpt lat="43.50868" lon="6.93822">
        <ele>8</ele>
        <time>2016-10-15T09:55:22Z</time>
      </trkpt>
      <trkpt lat="43.50866" lon="6.93826">
        <ele>8</ele>
        <time>2016-10-15T09:55:23Z</time>
      </trkpt>
      <trkpt lat="43.50851" lon="6.93844">
        <ele>8</ele>
        <time>2016-10-15T09:55:30Z</time>
      </trkpt>
      <trkpt lat="43.50841" lon="6.9386">
        <ele>8</ele>
        <time>2016-10-15T09:55:37Z</time>
      </trkpt>
      <trkpt lat="43.5082" lon="6.93915">
        <ele>8</ele>
        <time>2016-10-15T09:55:59Z</time>
      </trkpt>
      <trkpt lat="43.50822" lon="6.93922">
        <ele>8</ele>
        <time>2016-10-15T09:56:01Z</time>
      </trkpt>
      <trkpt lat="43.50841" lon="6.93952">
        <ele>8</ele>
        <time>2016-10-15T09:56:13Z</time>
      </trkpt>
      <trkpt lat="43.50849" lon="6.93971">
        <ele>8</ele>
        <time>2016-10-15T09:56:21Z</time>
      </trkpt>
      <trkpt lat="43.50846" lon="6.9399">
        <ele>8</ele>
        <time>2016-10-15T09:56:29Z</time>
      </trkpt>
      <trkpt lat="43.5083" lon="6.94022">
        <ele>8</ele>
        <time>2016-10-15T09:56:44Z</time>
      </trkpt>
      <trkpt lat="43.50827" lon="6.94043">
        <ele>8</ele>
        <time>2016-10-15T09:56:51Z</time>
      </trkpt>
      <trkpt lat="43.50827" lon="6.94053">
        <ele>8</ele>
        <time>2016-10-15T09:56:55Z</time>
      </trkpt>
      <trkpt lat="43.50844" lon="6.94087">
        <ele>8</ele>
        <time>2016-10-15T09:57:19Z</time>
      </trkpt>
      <trkpt lat="43.50842" lon="6.94106">
        <ele>8</ele>
        <time>2016-10-15T09:57:38Z</time>
      </trkpt>
    </trkseg>
  </trk>
</gpx>